IBE0137 LEMD-SEQM
Flight info
| Callsign | IBE0137 |
|---|---|
| Flight time | 10h 28m |
| Altitude | 38000 |
| Route | BARDI DCT RIVRO DCT ERPES/M086F380 DCT 3930N02000W 37N030W 33N040W 27N048W 25N050W 21N055W DCT CITRS/N0498F380 UP533 QIT |
| Aircraft | A359/H-SDE2E3GHIJ1J3J4J5LM1ORWXY/LB1D1 |
Departure
| Time | 2026-05-07 22:35 |
|---|---|
| Airport | Adolfo Suárez Madrid–Barajas Airport (LEMD) |
Arrival
| Time | 2026-05-08 09:04 |
|---|---|
| Airport | Mariscal Sucre International Airport (SEQM) |
| Time | Latitude | Longitude | Altitude | Speed | Heading |
|---|---|---|---|---|---|
| 2026-05-07 22:07 | 40.49358 | -3.56877 | 1987 ft | 0 kts | 89° |
| 2026-05-07 22:25 | 40.49358 | -3.56882 | 1989 ft | 4 kts | 89° |
| 2026-05-07 22:25 | 40.49358 | -3.56917 | 1987 ft | 4 kts | 95° |
| 2026-05-07 22:25 | 40.49362 | -3.56952 | 1987 ft | 4 kts | 104° |
| 2026-05-07 22:26 | 40.49370 | -3.56984 | 1987 ft | 4 kts | 123° |
| 2026-05-07 22:26 | 40.49384 | -3.57005 | 1985 ft | 4 kts | 158° |
| 2026-05-07 22:26 | 40.49392 | -3.57009 | 1986 ft | 1 kts | 178° |
| 2026-05-07 22:26 | 40.49385 | -3.57009 | 1987 ft | 1 kts | 178° |
| 2026-05-07 22:27 | 40.49378 | -3.57009 | 1986 ft | 1 kts | 178° |
| 2026-05-07 22:28 | 40.49356 | -3.57007 | 1987 ft | 8 kts | 178° |
| 2026-05-07 22:29 | 40.49305 | -3.57034 | 1990 ft | 9 kts | 221° |
| 2026-05-07 22:29 | 40.49290 | -3.57106 | 1986 ft | 10 kts | 265° |
| 2026-05-07 22:29 | 40.49288 | -3.57206 | 1986 ft | 9 kts | 250° |
| 2026-05-07 22:29 | 40.49231 | -3.57234 | 1989 ft | 10 kts | 185° |
| 2026-05-07 22:30 | 40.49179 | -3.57288 | 1990 ft | 10 kts | 252° |
| 2026-05-07 22:30 | 40.49180 | -3.57316 | 1988 ft | 0 kts | 275° |
| 2026-05-07 22:33 | 40.49183 | -3.57367 | 1988 ft | 8 kts | 272° |
| 2026-05-07 22:34 | 40.49190 | -3.57438 | 1989 ft | 8 kts | 295° |
| 2026-05-07 22:34 | 40.49225 | -3.57466 | 1989 ft | 5 kts | 358° |
| 2026-05-07 22:34 | 40.49414 | -3.57465 | 1989 ft | 56 kts | 358° |
| 2026-05-07 22:34 | 40.50038 | -3.57465 | 1990 ft | 122 kts | 0° |
| 2026-05-07 22:35 | 40.51093 | -3.57470 | 1988 ft | 179 kts | 360° |
| 2026-05-07 22:35 | 40.52409 | -3.57469 | 2522 ft | 191 kts | 0° |
| 2026-05-07 22:35 | 40.53785 | -3.57457 | 3194 ft | 207 kts | 1° |
| 2026-05-07 22:35 | 40.55259 | -3.57436 | 3655 ft | 215 kts | 2° |
| 2026-05-07 22:36 | 40.56801 | -3.57406 | 3885 ft | 230 kts | 2° |
| 2026-05-07 22:36 | 40.58463 | -3.57564 | 3971 ft | 251 kts | 342° |
| 2026-05-07 22:36 | 40.59919 | -3.58912 | 4229 ft | 265 kts | 306° |
| 2026-05-07 22:36 | 40.60640 | -3.61112 | 4697 ft | 269 kts | 282° |
| 2026-05-07 22:37 | 40.60873 | -3.63582 | 5213 ft | 274 kts | 271° |
| 2026-05-07 22:37 | 40.60860 | -3.66093 | 5817 ft | 275 kts | 266° |
| 2026-05-07 22:37 | 40.60767 | -3.68610 | 6447 ft | 276 kts | 265° |
| 2026-05-07 22:37 | 40.60682 | -3.71146 | 7055 ft | 278 kts | 266° |
| 2026-05-07 22:38 | 40.60635 | -3.73699 | 7693 ft | 280 kts | 268° |
| 2026-05-07 22:38 | 40.60630 | -3.76271 | 8343 ft | 281 kts | 269° |
| 2026-05-07 22:38 | 40.60656 | -3.78853 | 8986 ft | 283 kts | 269° |
| 2026-05-07 22:38 | 40.60699 | -3.81465 | 9666 ft | 285 kts | 269° |
| 2026-05-07 22:39 | 40.60750 | -3.84086 | 10247 ft | 290 kts | 269° |
| 2026-05-07 22:39 | 40.60803 | -3.86769 | 10535 ft | 304 kts | 269° |
| 2026-05-07 22:39 | 40.60857 | -3.89612 | 10821 ft | 319 kts | 269° |
| 2026-05-07 22:39 | 40.60911 | -3.92599 | 11108 ft | 333 kts | 270° |
| 2026-05-07 22:40 | 40.60965 | -3.95725 | 11401 ft | 347 kts | 270° |
| 2026-05-07 22:40 | 40.61019 | -3.98962 | 11695 ft | 360 kts | 270° |
| 2026-05-07 22:40 | 40.61073 | -4.02275 | 12013 ft | 370 kts | 270° |
| 2026-05-07 22:40 | 40.61129 | -4.05701 | 12502 ft | 376 kts | 270° |
| 2026-05-07 22:41 | 40.61185 | -4.09159 | 13072 ft | 379 kts | 270° |
| 2026-05-07 22:41 | 40.61240 | -4.12639 | 13642 ft | 382 kts | 270° |
| 2026-05-07 22:41 | 40.61295 | -4.16155 | 14186 ft | 384 kts | 270° |
| 2026-05-07 22:41 | 40.61348 | -4.19684 | 14699 ft | 387 kts | 270° |
| 2026-05-07 22:42 | 40.61399 | -4.23199 | 15220 ft | 389 kts | 270° |
| 2026-05-07 22:42 | 40.61449 | -4.26766 | 15740 ft | 391 kts | 270° |
| 2026-05-07 22:42 | 40.61499 | -4.30369 | 16252 ft | 394 kts | 270° |
| 2026-05-07 22:42 | 40.61547 | -4.33982 | 16761 ft | 396 kts | 270° |
| 2026-05-07 22:43 | 40.61595 | -4.37626 | 17271 ft | 399 kts | 270° |
| 2026-05-07 22:43 | 40.61642 | -4.41246 | 17773 ft | 401 kts | 270° |
| 2026-05-07 22:43 | 40.61688 | -4.44936 | 18282 ft | 404 kts | 270° |
| 2026-05-07 22:43 | 40.61733 | -4.48643 | 18727 ft | 406 kts | 270° |
| 2026-05-07 22:44 | 40.61778 | -4.52375 | 19181 ft | 409 kts | 269° |
| 2026-05-07 22:44 | 40.61822 | -4.56135 | 19666 ft | 411 kts | 269° |
| 2026-05-07 22:44 | 40.61863 | -4.59919 | 20148 ft | 413 kts | 269° |
| 2026-05-07 22:44 | 40.61904 | -4.63657 | 20621 ft | 415 kts | 269° |
| 2026-05-07 22:45 | 40.61945 | -4.67487 | 21109 ft | 417 kts | 269° |
| 2026-05-07 22:45 | 40.61985 | -4.71328 | 21568 ft | 420 kts | 269° |
| 2026-05-07 22:45 | 40.62024 | -4.75187 | 22018 ft | 423 kts | 269° |
| 2026-05-07 22:45 | 40.62061 | -4.79023 | 22459 ft | 425 kts | 269° |
| 2026-05-07 22:46 | 40.62098 | -4.82934 | 22914 ft | 428 kts | 269° |
| 2026-05-07 22:46 | 40.62133 | -4.86863 | 23368 ft | 431 kts | 269° |
| 2026-05-07 22:46 | 40.62167 | -4.90821 | 23764 ft | 434 kts | 269° |
| 2026-05-07 22:46 | 40.62200 | -4.94815 | 24150 ft | 436 kts | 269° |
| 2026-05-07 22:47 | 40.62232 | -4.98834 | 24549 ft | 438 kts | 269° |
| 2026-05-07 22:47 | 40.62263 | -5.02850 | 24956 ft | 440 kts | 269° |
| 2026-05-07 22:47 | 40.62292 | -5.06840 | 25325 ft | 442 kts | 269° |
| 2026-05-07 22:47 | 40.62320 | -5.10888 | 25715 ft | 443 kts | 268° |
| 2026-05-07 22:48 | 40.62347 | -5.14974 | 26098 ft | 445 kts | 268° |
| 2026-05-07 22:48 | 40.62372 | -5.19063 | 26479 ft | 447 kts | 268° |
| 2026-05-07 22:48 | 40.62396 | -5.23181 | 26843 ft | 449 kts | 268° |
| 2026-05-07 22:48 | 40.62418 | -5.27255 | 27202 ft | 451 kts | 268° |
| 2026-05-07 22:49 | 40.62439 | -5.31398 | 27568 ft | 453 kts | 268° |
| 2026-05-07 22:49 | 40.62459 | -5.35556 | 27931 ft | 455 kts | 268° |
| 2026-05-07 22:49 | 40.62478 | -5.39745 | 28273 ft | 457 kts | 268° |
| 2026-05-07 22:49 | 40.62495 | -5.43940 | 28607 ft | 459 kts | 268° |
| 2026-05-07 22:50 | 40.62505 | -5.46739 | 28823 ft | 461 kts | 268° |
| 2026-05-07 22:50 | 40.62525 | -5.52351 | 29255 ft | 463 kts | 268° |
| 2026-05-07 22:50 | 40.62537 | -5.56607 | 29552 ft | 465 kts | 268° |
| 2026-05-07 22:50 | 40.62545 | -5.59445 | 29746 ft | 467 kts | 268° |
| 2026-05-07 22:51 | 40.62555 | -5.63728 | 30038 ft | 468 kts | 268° |
| 2026-05-07 22:51 | 40.62564 | -5.68024 | 30398 ft | 467 kts | 268° |
| 2026-05-07 22:51 | 40.62572 | -5.72291 | 30780 ft | 465 kts | 268° |
| 2026-05-07 22:51 | 40.62578 | -5.76536 | 31138 ft | 463 kts | 268° |
| 2026-05-07 22:52 | 40.62582 | -5.80724 | 31483 ft | 461 kts | 267° |
| 2026-05-07 22:52 | 40.62584 | -5.84950 | 31825 ft | 460 kts | 267° |
| 2026-05-07 22:52 | 40.62585 | -5.89166 | 32142 ft | 459 kts | 267° |
| 2026-05-07 22:52 | 40.62584 | -5.93365 | 32445 ft | 458 kts | 267° |
| 2026-05-07 22:53 | 40.62581 | -5.97555 | 32778 ft | 456 kts | 267° |
| 2026-05-07 22:53 | 40.62577 | -6.01675 | 33081 ft | 455 kts | 267° |
| 2026-05-07 22:53 | 40.62572 | -6.05853 | 33361 ft | 454 kts | 267° |
| 2026-05-07 22:53 | 40.62565 | -6.10021 | 33642 ft | 453 kts | 267° |
| 2026-05-07 22:54 | 40.62557 | -6.14119 | 33929 ft | 452 kts | 267° |
| 2026-05-07 22:54 | 40.62547 | -6.18264 | 34164 ft | 451 kts | 267° |
| 2026-05-07 22:54 | 40.62535 | -6.22410 | 34336 ft | 451 kts | 267° |
| 2026-05-07 22:54 | 40.62522 | -6.26509 | 34490 ft | 452 kts | 266° |
| 2026-05-07 22:55 | 40.62508 | -6.30653 | 34661 ft | 452 kts | 266° |
| 2026-05-07 22:55 | 40.62492 | -6.34787 | 34841 ft | 452 kts | 266° |
| 2026-05-07 22:55 | 40.62475 | -6.38930 | 34989 ft | 452 kts | 266° |
| 2026-05-07 22:55 | 40.62456 | -6.43078 | 35131 ft | 453 kts | 266° |
| 2026-05-07 22:56 | 40.62436 | -6.47231 | 35293 ft | 453 kts | 266° |
| 2026-05-07 22:56 | 40.62414 | -6.51380 | 35448 ft | 453 kts | 266° |
| 2026-05-07 22:56 | 40.62391 | -6.55531 | 35591 ft | 454 kts | 266° |
| 2026-05-07 22:56 | 40.62366 | -6.59640 | 35720 ft | 454 kts | 266° |
| 2026-05-07 22:57 | 40.62340 | -6.63802 | 35869 ft | 454 kts | 266° |
| 2026-05-07 22:57 | 40.62313 | -6.67961 | 36004 ft | 454 kts | 266° |
| 2026-05-07 22:57 | 40.62284 | -6.72121 | 36110 ft | 455 kts | 266° |
| 2026-05-07 22:57 | 40.62223 | -6.76298 | 36229 ft | 455 kts | 265° |
| 2026-05-07 22:58 | 40.62074 | -6.80459 | 36359 ft | 455 kts | 264° |
| 2026-05-07 22:58 | 40.61882 | -6.84627 | 36465 ft | 455 kts | 264° |
| 2026-05-07 22:58 | 40.61682 | -6.88730 | 36563 ft | 456 kts | 264° |
| 2026-05-07 22:58 | 40.61484 | -6.92894 | 36668 ft | 456 kts | 264° |
| 2026-05-07 22:59 | 40.61295 | -6.97065 | 36767 ft | 457 kts | 264° |
| 2026-05-07 22:59 | 40.61112 | -7.01250 | 36873 ft | 457 kts | 264° |
| 2026-05-07 22:59 | 40.60934 | -7.05437 | 36962 ft | 458 kts | 264° |
| 2026-05-07 23:00 | 40.60581 | -7.13807 | 37140 ft | 459 kts | 265° |
| 2026-05-07 23:00 | 40.60223 | -7.22201 | 37324 ft | 459 kts | 265° |
| 2026-05-07 23:01 | 40.59856 | -7.30607 | 37493 ft | 460 kts | 265° |
| 2026-05-07 23:01 | 40.59484 | -7.38968 | 37636 ft | 461 kts | 265° |
| 2026-05-07 23:02 | 40.59103 | -7.47407 | 37773 ft | 462 kts | 265° |
| 2026-05-07 23:02 | 40.58910 | -7.51628 | 37874 ft | 462 kts | 265° |
| 2026-05-07 23:02 | 40.58715 | -7.55851 | 37921 ft | 463 kts | 265° |
| 2026-05-07 23:02 | 40.58519 | -7.60099 | 37642 ft | 463 kts | 262° |
| 2026-05-07 23:03 | 40.58335 | -7.64226 | 37890 ft | 451 kts | 262° |
| 2026-05-07 23:03 | 40.57958 | -7.72310 | 37951 ft | 438 kts | 262° |
| 2026-05-07 23:04 | 40.57560 | -7.80351 | 37951 ft | 441 kts | 262° |
| 2026-05-07 23:04 | 40.57159 | -7.88425 | 37951 ft | 443 kts | 262° |
| 2026-05-07 23:05 | 40.56759 | -7.96495 | 37952 ft | 445 kts | 262° |
| 2026-05-07 23:05 | 40.56349 | -8.04661 | 37952 ft | 446 kts | 261° |
| 2026-05-07 23:06 | 40.55934 | -8.12821 | 37952 ft | 448 kts | 261° |
| 2026-05-07 23:06 | 40.55513 | -8.20961 | 37949 ft | 449 kts | 261° |
| 2026-05-07 23:07 | 40.55087 | -8.29129 | 37946 ft | 449 kts | 261° |
| 2026-05-07 23:07 | 40.54652 | -8.37340 | 37951 ft | 449 kts | 261° |
| 2026-05-07 23:08 | 40.54212 | -8.45506 | 37952 ft | 450 kts | 261° |
| 2026-05-07 23:08 | 40.53765 | -8.53735 | 37937 ft | 451 kts | 261° |
| 2026-05-07 23:09 | 40.53310 | -8.61986 | 37946 ft | 451 kts | 261° |
| 2026-05-07 23:09 | 40.52850 | -8.70206 | 37938 ft | 452 kts | 261° |
| 2026-05-07 23:10 | 40.52383 | -8.78457 | 37937 ft | 453 kts | 260° |
| 2026-05-07 23:10 | 40.51908 | -8.86732 | 37941 ft | 454 kts | 260° |
| 2026-05-07 23:11 | 40.51430 | -8.94975 | 37947 ft | 454 kts | 260° |
| 2026-05-07 23:11 | 40.50941 | -9.03285 | 37938 ft | 455 kts | 260° |
| 2026-05-07 23:12 | 40.50450 | -9.11539 | 37942 ft | 456 kts | 260° |
| 2026-05-07 23:12 | 40.49948 | -9.19881 | 37938 ft | 457 kts | 260° |
| 2026-05-07 23:13 | 40.49440 | -9.28212 | 37940 ft | 458 kts | 260° |
| 2026-05-07 23:13 | 40.48927 | -9.36530 | 37939 ft | 459 kts | 260° |
| 2026-05-07 23:14 | 40.48403 | -9.44920 | 37939 ft | 460 kts | 260° |
| 2026-05-07 23:14 | 40.47878 | -9.53246 | 37937 ft | 460 kts | 260° |
| 2026-05-07 23:15 | 40.47341 | -9.61657 | 37935 ft | 461 kts | 260° |
| 2026-05-07 23:15 | 40.46800 | -9.70021 | 37936 ft | 462 kts | 260° |
| 2026-05-07 23:16 | 40.46250 | -9.78445 | 37939 ft | 463 kts | 260° |
| 2026-05-07 23:16 | 40.45691 | -9.86900 | 37936 ft | 464 kts | 260° |
| 2026-05-07 23:17 | 40.45130 | -9.95306 | 37939 ft | 465 kts | 260° |
| 2026-05-07 23:17 | 40.44557 | -10.03783 | 37934 ft | 466 kts | 260° |
| 2026-05-07 23:18 | 40.43977 | -10.12283 | 37936 ft | 467 kts | 260° |
| 2026-05-07 23:18 | 40.43389 | -10.20799 | 37938 ft | 468 kts | 260° |
| 2026-05-07 23:19 | 40.42798 | -10.29266 | 37934 ft | 469 kts | 260° |
| 2026-05-07 23:19 | 40.42195 | -10.37814 | 37936 ft | 470 kts | 260° |
| 2026-05-07 23:20 | 40.41586 | -10.46369 | 37933 ft | 470 kts | 260° |
| 2026-05-07 23:20 | 40.40972 | -10.54886 | 37935 ft | 471 kts | 260° |
| 2026-05-07 23:21 | 40.40347 | -10.63486 | 37932 ft | 472 kts | 260° |
| 2026-05-07 23:21 | 40.39718 | -10.72044 | 37932 ft | 473 kts | 260° |
| 2026-05-07 23:22 | 40.39078 | -10.80649 | 37934 ft | 474 kts | 260° |
| 2026-05-07 23:22 | 40.38435 | -10.89226 | 37934 ft | 475 kts | 260° |
| 2026-05-07 23:23 | 40.37781 | -10.97860 | 37929 ft | 475 kts | 260° |
| 2026-05-07 23:23 | 40.37118 | -11.06512 | 37928 ft | 476 kts | 260° |
| 2026-05-07 23:24 | 40.36452 | -11.15128 | 37928 ft | 477 kts | 260° |
| 2026-05-07 23:24 | 40.35775 | -11.23808 | 37933 ft | 478 kts | 260° |
| 2026-05-07 23:25 | 40.35088 | -11.32519 | 37932 ft | 479 kts | 260° |
| 2026-05-07 23:25 | 40.34399 | -11.41182 | 37928 ft | 480 kts | 259° |
| 2026-05-07 23:26 | 40.33699 | -11.49896 | 37931 ft | 481 kts | 259° |
| 2026-05-07 23:26 | 40.32991 | -11.58626 | 37932 ft | 481 kts | 259° |
| 2026-05-07 23:27 | 40.31918 | -11.71690 | 37921 ft | 482 kts | 259° |
| 2026-05-07 23:27 | 40.31192 | -11.80437 | 37925 ft | 483 kts | 259° |
| 2026-05-07 23:28 | 40.30461 | -11.89150 | 37925 ft | 483 kts | 259° |
| 2026-05-07 23:28 | 40.29718 | -11.97934 | 37921 ft | 484 kts | 259° |
| 2026-05-07 23:29 | 40.28970 | -12.06699 | 37919 ft | 484 kts | 259° |
| 2026-05-07 23:29 | 40.28218 | -12.15439 | 37920 ft | 485 kts | 259° |
| 2026-05-07 23:30 | 40.27454 | -12.24229 | 37923 ft | 485 kts | 259° |
| 2026-05-07 23:30 | 40.26686 | -12.32979 | 37920 ft | 486 kts | 259° |
| 2026-05-07 23:31 | 40.25906 | -12.41804 | 37920 ft | 486 kts | 259° |
| 2026-05-07 23:31 | 40.25125 | -12.50548 | 37918 ft | 486 kts | 259° |
| 2026-05-07 23:32 | 40.24332 | -12.59357 | 37918 ft | 487 kts | 259° |
| 2026-05-07 23:32 | 40.23536 | -12.68129 | 37910 ft | 487 kts | 259° |
| 2026-05-07 23:33 | 40.22727 | -12.76956 | 37908 ft | 488 kts | 259° |
| 2026-05-07 23:33 | 40.21916 | -12.85747 | 37914 ft | 488 kts | 259° |
| 2026-05-07 23:34 | 40.21092 | -12.94590 | 37914 ft | 489 kts | 259° |
| 2026-05-07 23:34 | 40.20259 | -13.03454 | 37907 ft | 489 kts | 259° |
| 2026-05-07 23:35 | 40.19426 | -13.12254 | 37906 ft | 490 kts | 259° |
| 2026-05-07 23:35 | 40.18578 | -13.21129 | 37898 ft | 490 kts | 259° |
| 2026-05-07 23:36 | 40.17730 | -13.29938 | 37893 ft | 491 kts | 259° |
| 2026-05-07 23:36 | 40.16867 | -13.38837 | 37895 ft | 491 kts | 259° |
| 2026-05-07 23:37 | 40.16003 | -13.47665 | 37894 ft | 492 kts | 259° |
| 2026-05-07 23:37 | 40.15274 | -13.55060 | 37893 ft | 492 kts | 259° |
| 2026-05-07 23:38 | 40.14395 | -13.63915 | 37890 ft | 492 kts | 259° |
| 2026-05-07 23:38 | 40.13505 | -13.72806 | 37889 ft | 493 kts | 259° |
| 2026-05-07 23:39 | 40.12606 | -13.81713 | 37882 ft | 493 kts | 259° |
| 2026-05-07 23:39 | 40.11708 | -13.90546 | 37882 ft | 493 kts | 259° |
| 2026-05-07 23:40 | 40.10797 | -13.99446 | 37874 ft | 493 kts | 259° |
| 2026-05-07 23:40 | 40.09883 | -14.08298 | 37872 ft | 493 kts | 259° |
| 2026-05-07 23:41 | 40.08957 | -14.17197 | 37866 ft | 494 kts | 259° |
| 2026-05-07 23:41 | 40.08024 | -14.26100 | 37868 ft | 494 kts | 259° |
| 2026-05-07 23:42 | 40.07089 | -14.34949 | 37865 ft | 494 kts | 259° |
| 2026-05-07 23:42 | 40.06141 | -14.43852 | 37861 ft | 494 kts | 259° |
| 2026-05-07 23:43 | 40.05187 | -14.52756 | 37862 ft | 494 kts | 259° |
| 2026-05-07 23:43 | 40.04231 | -14.61603 | 37854 ft | 494 kts | 259° |
| 2026-05-07 23:44 | 40.03262 | -14.70510 | 37852 ft | 494 kts | 259° |
| 2026-05-07 23:44 | 40.02296 | -14.79333 | 37851 ft | 494 kts | 259° |
| 2026-05-07 23:45 | 40.01314 | -14.88223 | 37848 ft | 494 kts | 259° |
| 2026-05-07 23:45 | 40.00332 | -14.97059 | 37836 ft | 494 kts | 259° |
| 2026-05-07 23:46 | 39.99413 | -15.05961 | 37838 ft | 494 kts | 261° |
| 2026-05-07 23:46 | 39.98747 | -15.14911 | 37835 ft | 495 kts | 262° |
| 2026-05-07 23:47 | 39.98104 | -15.23798 | 37828 ft | 495 kts | 262° |
| 2026-05-07 23:47 | 39.97410 | -15.32735 | 37827 ft | 494 kts | 262° |
| 2026-05-07 23:48 | 39.96690 | -15.41611 | 37825 ft | 494 kts | 262° |
| 2026-05-07 23:48 | 39.95956 | -15.50543 | 37818 ft | 494 kts | 262° |
| 2026-05-07 23:49 | 39.95216 | -15.59462 | 37815 ft | 494 kts | 262° |
| 2026-05-07 23:49 | 39.94475 | -15.68330 | 37809 ft | 494 kts | 262° |
| 2026-05-07 23:50 | 39.93721 | -15.77273 | 37809 ft | 494 kts | 262° |
| 2026-05-07 23:50 | 39.92963 | -15.86185 | 37802 ft | 494 kts | 262° |
| 2026-05-07 23:51 | 39.92204 | -15.95023 | 37799 ft | 494 kts | 262° |
| 2026-05-07 23:51 | 39.91432 | -16.03931 | 37800 ft | 494 kts | 262° |
| 2026-05-07 23:52 | 39.90655 | -16.12827 | 37793 ft | 494 kts | 261° |
| 2026-05-07 23:52 | 39.89868 | -16.21740 | 37787 ft | 494 kts | 261° |
| 2026-05-07 23:53 | 39.89082 | -16.30571 | 37783 ft | 494 kts | 261° |
| 2026-05-07 23:53 | 39.88284 | -16.39461 | 37781 ft | 493 kts | 261° |
| 2026-05-07 23:54 | 39.87478 | -16.48353 | 37773 ft | 493 kts | 261° |
| 2026-05-07 23:54 | 39.86671 | -16.57184 | 37772 ft | 493 kts | 261° |
| 2026-05-07 23:55 | 39.85855 | -16.66058 | 37765 ft | 493 kts | 261° |
| 2026-05-07 23:55 | 39.85036 | -16.74877 | 37761 ft | 493 kts | 261° |
| 2026-05-07 23:56 | 39.84205 | -16.83742 | 37756 ft | 492 kts | 261° |
| 2026-05-07 23:56 | 39.83368 | -16.92600 | 37749 ft | 492 kts | 261° |
| 2026-05-07 23:57 | 39.82530 | -17.01394 | 37748 ft | 492 kts | 261° |
| 2026-05-07 23:57 | 39.81681 | -17.10239 | 37744 ft | 492 kts | 261° |
| 2026-05-07 23:58 | 39.80830 | -17.19029 | 37734 ft | 492 kts | 261° |
| 2026-05-07 23:58 | 39.79966 | -17.27867 | 37731 ft | 492 kts | 261° |
| 2026-05-07 23:59 | 39.79099 | -17.36696 | 37726 ft | 492 kts | 261° |
| 2026-05-07 23:59 | 39.78223 | -17.45527 | 37722 ft | 492 kts | 261° |
| 2026-05-08 00:00 | 39.77344 | -17.54314 | 37721 ft | 492 kts | 261° |
| 2026-05-08 00:00 | 39.76452 | -17.63145 | 37717 ft | 492 kts | 261° |
| 2026-05-08 00:01 | 39.75561 | -17.71933 | 37694 ft | 492 kts | 261° |
| 2026-05-08 00:01 | 39.74666 | -17.80703 | 37698 ft | 492 kts | 261° |
| 2026-05-08 00:02 | 39.73757 | -17.89529 | 37692 ft | 492 kts | 261° |
| 2026-05-08 00:02 | 39.72841 | -17.98345 | 37698 ft | 492 kts | 261° |
| 2026-05-08 00:03 | 39.71924 | -18.07104 | 37685 ft | 492 kts | 261° |
| 2026-05-08 00:03 | 39.70994 | -18.15921 | 37694 ft | 492 kts | 261° |
| 2026-05-08 00:04 | 39.70063 | -18.24690 | 37682 ft | 492 kts | 261° |
| 2026-05-08 00:04 | 39.69119 | -18.33514 | 37674 ft | 492 kts | 261° |
| 2026-05-08 00:05 | 39.68169 | -18.42326 | 37675 ft | 492 kts | 261° |
| 2026-05-08 00:05 | 39.67218 | -18.51076 | 37669 ft | 492 kts | 261° |
| 2026-05-08 00:06 | 39.66253 | -18.59908 | 37664 ft | 493 kts | 261° |
| 2026-05-08 00:06 | 39.65282 | -18.68729 | 37677 ft | 494 kts | 261° |
| 2026-05-08 00:07 | 39.64308 | -18.77511 | 37673 ft | 494 kts | 261° |
| 2026-05-08 00:07 | 39.63319 | -18.86369 | 37668 ft | 495 kts | 261° |
| 2026-05-08 00:08 | 39.62328 | -18.95176 | 37673 ft | 496 kts | 261° |
| 2026-05-08 00:08 | 39.61323 | -19.04043 | 37676 ft | 496 kts | 261° |
| 2026-05-08 00:09 | 39.60310 | -19.12925 | 37671 ft | 497 kts | 261° |
| 2026-05-08 00:09 | 39.59295 | -19.21768 | 37671 ft | 497 kts | 261° |
| 2026-05-08 00:10 | 39.58270 | -19.30622 | 37669 ft | 497 kts | 261° |
| 2026-05-08 00:10 | 39.57235 | -19.39517 | 37670 ft | 498 kts | 261° |
| 2026-05-08 00:11 | 39.56199 | -19.48346 | 37673 ft | 498 kts | 261° |
| 2026-05-08 00:11 | 39.55150 | -19.57238 | 37675 ft | 498 kts | 261° |
| 2026-05-08 00:12 | 39.54100 | -19.66074 | 37670 ft | 498 kts | 261° |
| 2026-05-08 00:12 | 39.53036 | -19.74963 | 37668 ft | 499 kts | 261° |
| 2026-05-08 00:13 | 39.51965 | -19.83862 | 37681 ft | 499 kts | 261° |
| 2026-05-08 00:13 | 39.50893 | -19.92706 | 37673 ft | 499 kts | 261° |
| 2026-05-08 00:14 | 39.49651 | -20.01559 | 37668 ft | 499 kts | 257° |
| 2026-05-08 00:14 | 39.47976 | -20.10245 | 37675 ft | 499 kts | 256° |
| 2026-05-08 00:15 | 39.46215 | -20.18958 | 37670 ft | 499 kts | 256° |
| 2026-05-08 00:15 | 39.44455 | -20.27600 | 37668 ft | 499 kts | 256° |
| 2026-05-08 00:16 | 39.42687 | -20.36289 | 37677 ft | 498 kts | 256° |
| 2026-05-08 00:16 | 39.40930 | -20.44915 | 37672 ft | 498 kts | 256° |
| 2026-05-08 00:17 | 39.39159 | -20.53577 | 37678 ft | 498 kts | 256° |
| 2026-05-08 00:17 | 39.37377 | -20.62251 | 37676 ft | 497 kts | 256° |
| 2026-05-08 00:18 | 39.35605 | -20.70845 | 37680 ft | 497 kts | 256° |
| 2026-05-08 00:18 | 39.33814 | -20.79497 | 37684 ft | 497 kts | 256° |
| 2026-05-08 00:19 | 39.32027 | -20.88092 | 37686 ft | 497 kts | 256° |
| 2026-05-08 00:19 | 39.30223 | -20.96735 | 37700 ft | 498 kts | 256° |
| 2026-05-08 00:20 | 39.28411 | -21.05372 | 37692 ft | 498 kts | 256° |
| 2026-05-08 00:20 | 39.26600 | -21.13976 | 37694 ft | 498 kts | 256° |
| 2026-05-08 00:21 | 39.24775 | -21.22612 | 37697 ft | 498 kts | 256° |
| 2026-05-08 00:21 | 39.22955 | -21.31190 | 37699 ft | 498 kts | 256° |
| 2026-05-08 00:22 | 39.21114 | -21.39834 | 37708 ft | 498 kts | 256° |
| 2026-05-08 00:22 | 39.19280 | -21.48411 | 37715 ft | 498 kts | 256° |
| 2026-05-08 00:23 | 39.17431 | -21.57027 | 37708 ft | 498 kts | 256° |
| 2026-05-08 00:23 | 39.15887 | -21.64189 | 37716 ft | 498 kts | 256° |
| 2026-05-08 00:24 | 39.13716 | -21.74216 | 37715 ft | 499 kts | 256° |
| 2026-05-08 00:24 | 39.12159 | -21.81387 | 37722 ft | 499 kts | 256° |
| 2026-05-08 00:25 | 39.10282 | -21.90005 | 37726 ft | 499 kts | 256° |
| 2026-05-08 00:25 | 39.08409 | -21.98566 | 37738 ft | 499 kts | 256° |
| 2026-05-08 00:26 | 39.06516 | -22.07183 | 37729 ft | 499 kts | 256° |
| 2026-05-08 00:26 | 39.04620 | -22.15781 | 37735 ft | 500 kts | 256° |
| 2026-05-08 00:27 | 39.02722 | -22.24355 | 37750 ft | 500 kts | 256° |
| 2026-05-08 00:27 | 39.00806 | -22.32979 | 37742 ft | 500 kts | 256° |
| 2026-05-08 00:28 | 38.98886 | -22.41583 | 37758 ft | 500 kts | 256° |
| 2026-05-08 00:28 | 38.96967 | -22.50154 | 37751 ft | 500 kts | 256° |
| 2026-05-08 00:29 | 38.95033 | -22.58753 | 37757 ft | 500 kts | 256° |
| 2026-05-08 00:29 | 38.93102 | -22.67311 | 37760 ft | 501 kts | 256° |
| 2026-05-08 00:30 | 38.91164 | -22.75869 | 37761 ft | 501 kts | 256° |
| 2026-05-08 00:30 | 38.89209 | -22.84470 | 37768 ft | 501 kts | 256° |
| 2026-05-08 00:31 | 38.87247 | -22.93066 | 37774 ft | 501 kts | 256° |
| 2026-05-08 00:31 | 38.85292 | -23.01600 | 37778 ft | 501 kts | 256° |
| 2026-05-08 00:32 | 38.83317 | -23.10191 | 37778 ft | 501 kts | 256° |
| 2026-05-08 00:32 | 38.81336 | -23.18775 | 37783 ft | 501 kts | 256° |
| 2026-05-08 00:33 | 38.79362 | -23.27297 | 37786 ft | 501 kts | 256° |
| 2026-05-08 00:33 | 38.77363 | -23.35895 | 37791 ft | 501 kts | 256° |
| 2026-05-08 00:34 | 38.75377 | -23.44406 | 37797 ft | 501 kts | 256° |
| 2026-05-08 00:34 | 38.73366 | -23.52989 | 37796 ft | 501 kts | 256° |
| 2026-05-08 00:35 | 38.71368 | -23.61488 | 37804 ft | 501 kts | 257° |
| 2026-05-08 00:35 | 38.69347 | -23.70053 | 37807 ft | 501 kts | 256° |
| 2026-05-08 00:36 | 38.67321 | -23.78609 | 37809 ft | 501 kts | 256° |
| 2026-05-08 00:36 | 38.65301 | -23.87106 | 37817 ft | 501 kts | 256° |
| 2026-05-08 00:37 | 38.63266 | -23.95640 | 37821 ft | 501 kts | 256° |
| 2026-05-08 00:38 | 38.60200 | -24.08435 | 37825 ft | 501 kts | 257° |
| 2026-05-08 00:38 | 38.58162 | -24.16902 | 37828 ft | 500 kts | 257° |
| 2026-05-08 00:39 | 38.56116 | -24.25372 | 37835 ft | 500 kts | 257° |
| 2026-05-08 00:39 | 38.54057 | -24.33868 | 37837 ft | 500 kts | 257° |
| 2026-05-08 00:40 | 38.51990 | -24.42365 | 37836 ft | 499 kts | 257° |
| 2026-05-08 00:40 | 38.49923 | -24.50831 | 37844 ft | 499 kts | 257° |
| 2026-05-08 00:41 | 38.47863 | -24.59241 | 37853 ft | 499 kts | 257° |
| 2026-05-08 00:41 | 38.45778 | -24.67723 | 37850 ft | 498 kts | 257° |
| 2026-05-08 00:42 | 38.43703 | -24.76135 | 37851 ft | 498 kts | 257° |
| 2026-05-08 00:42 | 38.41614 | -24.84575 | 37863 ft | 498 kts | 257° |
| 2026-05-08 00:43 | 38.39531 | -24.92957 | 37865 ft | 498 kts | 257° |
| 2026-05-08 00:43 | 38.37429 | -25.01390 | 37870 ft | 498 kts | 257° |
| 2026-05-08 00:44 | 38.35320 | -25.09823 | 37873 ft | 499 kts | 257° |
| 2026-05-08 00:44 | 38.33218 | -25.18198 | 37883 ft | 499 kts | 257° |
| 2026-05-08 00:45 | 38.31093 | -25.26637 | 37883 ft | 499 kts | 257° |
| 2026-05-08 00:45 | 38.28978 | -25.35008 | 37884 ft | 499 kts | 257° |
| 2026-05-08 00:46 | 38.26840 | -25.43437 | 37898 ft | 499 kts | 257° |
| 2026-05-08 00:46 | 38.24709 | -25.51814 | 37894 ft | 499 kts | 257° |
| 2026-05-08 00:47 | 38.22557 | -25.60244 | 37903 ft | 499 kts | 257° |
| 2026-05-08 00:47 | 38.20419 | -25.68588 | 37908 ft | 499 kts | 257° |
| 2026-05-08 00:48 | 38.18259 | -25.76993 | 37911 ft | 499 kts | 257° |
| 2026-05-08 00:48 | 38.16107 | -25.85339 | 37917 ft | 499 kts | 257° |
| 2026-05-08 00:49 | 38.13937 | -25.93727 | 37921 ft | 499 kts | 257° |
| 2026-05-08 00:49 | 38.11770 | -26.02072 | 37926 ft | 499 kts | 257° |
| 2026-05-08 00:50 | 38.09592 | -26.10436 | 37931 ft | 498 kts | 257° |
| 2026-05-08 00:50 | 38.07406 | -26.18801 | 37937 ft | 498 kts | 257° |
| 2026-05-08 00:51 | 38.05231 | -26.27093 | 37935 ft | 498 kts | 257° |
| 2026-05-08 00:51 | 38.03036 | -26.35437 | 37943 ft | 497 kts | 257° |
| 2026-05-08 00:52 | 38.00850 | -26.43723 | 37947 ft | 497 kts | 257° |
| 2026-05-08 00:52 | 37.98646 | -26.52047 | 37950 ft | 497 kts | 257° |
| 2026-05-08 00:53 | 37.96451 | -26.60308 | 37956 ft | 496 kts | 257° |
| 2026-05-08 00:53 | 37.94238 | -26.68612 | 37961 ft | 496 kts | 257° |
| 2026-05-08 00:54 | 37.92029 | -26.76876 | 37962 ft | 495 kts | 257° |
| 2026-05-08 00:54 | 37.89809 | -26.85149 | 37970 ft | 495 kts | 257° |
| 2026-05-08 00:55 | 37.87602 | -26.93352 | 37979 ft | 495 kts | 257° |
| 2026-05-08 00:55 | 37.85376 | -27.01599 | 37976 ft | 494 kts | 258° |
| 2026-05-08 00:56 | 37.83145 | -27.09835 | 37987 ft | 494 kts | 258° |
| 2026-05-08 00:56 | 37.80924 | -27.18011 | 37987 ft | 493 kts | 258° |
| 2026-05-08 00:57 | 37.78686 | -27.26224 | 37990 ft | 493 kts | 258° |
| 2026-05-08 00:57 | 37.76456 | -27.34382 | 37997 ft | 492 kts | 258° |
| 2026-05-08 00:58 | 37.74214 | -27.42558 | 38001 ft | 491 kts | 258° |
| 2026-05-08 00:58 | 37.71964 | -27.50736 | 38004 ft | 491 kts | 258° |
| 2026-05-08 00:59 | 37.69726 | -27.58845 | 38006 ft | 490 kts | 258° |
| 2026-05-08 00:59 | 37.67474 | -27.66984 | 38011 ft | 489 kts | 258° |
| 2026-05-08 01:00 | 37.65236 | -27.75041 | 38013 ft | 488 kts | 258° |
| 2026-05-08 01:00 | 37.62980 | -27.83143 | 38018 ft | 487 kts | 258° |
| 2026-05-08 01:01 | 37.60743 | -27.91147 | 38033 ft | 486 kts | 258° |
| 2026-05-08 01:01 | 37.58484 | -27.99208 | 38030 ft | 485 kts | 258° |
| 2026-05-08 01:02 | 37.56229 | -28.07233 | 38020 ft | 484 kts | 258° |
| 2026-05-08 01:02 | 37.53993 | -28.15165 | 38033 ft | 483 kts | 258° |
| 2026-05-08 01:03 | 37.51740 | -28.23135 | 38036 ft | 481 kts | 258° |
| 2026-05-08 01:03 | 37.49486 | -28.31084 | 38039 ft | 480 kts | 258° |
| 2026-05-08 01:04 | 37.47242 | -28.38973 | 38045 ft | 479 kts | 258° |
| 2026-05-08 01:04 | 37.44990 | -28.46868 | 38047 ft | 478 kts | 258° |
| 2026-05-08 01:05 | 37.42753 | -28.54689 | 38058 ft | 477 kts | 258° |
| 2026-05-08 01:05 | 37.40504 | -28.62529 | 38061 ft | 476 kts | 258° |
| 2026-05-08 01:06 | 37.38246 | -28.70376 | 38067 ft | 475 kts | 258° |
| 2026-05-08 01:06 | 37.35992 | -28.78188 | 38067 ft | 475 kts | 258° |
| 2026-05-08 01:07 | 37.33750 | -28.85936 | 38068 ft | 474 kts | 258° |
| 2026-05-08 01:07 | 37.31487 | -28.93731 | 38075 ft | 473 kts | 258° |
| 2026-05-08 01:08 | 37.29229 | -29.01489 | 38082 ft | 472 kts | 258° |
| 2026-05-08 01:08 | 37.26967 | -29.09241 | 38081 ft | 471 kts | 258° |
| 2026-05-08 01:09 | 37.24719 | -29.16919 | 38090 ft | 471 kts | 258° |
| 2026-05-08 01:09 | 37.22453 | -29.24640 | 38092 ft | 470 kts | 258° |
| 2026-05-08 01:10 | 37.20202 | -29.32287 | 38096 ft | 469 kts | 258° |
| 2026-05-08 01:10 | 37.17938 | -29.39958 | 38102 ft | 468 kts | 258° |
| 2026-05-08 01:11 | 37.15675 | -29.47604 | 38106 ft | 467 kts | 258° |
| 2026-05-08 01:11 | 37.13788 | -29.53961 | 38106 ft | 466 kts | 258° |
| 2026-05-08 01:12 | 37.11153 | -29.62817 | 38116 ft | 465 kts | 258° |
| 2026-05-08 01:12 | 37.09266 | -29.69142 | 38110 ft | 465 kts | 258° |
| 2026-05-08 01:13 | 37.06627 | -29.77961 | 38122 ft | 464 kts | 258° |
| 2026-05-08 01:13 | 37.04739 | -29.84256 | 38121 ft | 463 kts | 258° |
| 2026-05-08 01:14 | 37.02469 | -29.91803 | 38122 ft | 462 kts | 258° |
| 2026-05-08 01:14 | 37.00207 | -29.99303 | 38125 ft | 461 kts | 258° |
| 2026-05-08 01:15 | 36.97811 | -30.06782 | 38131 ft | 463 kts | 256° |
| 2026-05-08 01:15 | 36.95227 | -30.14169 | 38137 ft | 463 kts | 256° |
| 2026-05-08 01:16 | 36.92659 | -30.21507 | 38138 ft | 461 kts | 256° |
| 2026-05-08 01:16 | 36.90111 | -30.28876 | 38144 ft | 460 kts | 256° |
| 2026-05-08 01:17 | 36.87601 | -30.36171 | 38147 ft | 459 kts | 257° |
| 2026-05-08 01:17 | 36.85075 | -30.43500 | 38144 ft | 457 kts | 257° |
| 2026-05-08 01:18 | 36.82569 | -30.50746 | 38148 ft | 456 kts | 257° |
| 2026-05-08 01:18 | 36.80052 | -30.58007 | 38162 ft | 454 kts | 257° |
| 2026-05-08 01:19 | 36.77539 | -30.65236 | 38158 ft | 452 kts | 257° |
| 2026-05-08 01:19 | 36.75049 | -30.72383 | 38162 ft | 451 kts | 257° |
| 2026-05-08 01:20 | 36.72546 | -30.79551 | 38160 ft | 449 kts | 257° |
| 2026-05-08 01:20 | 36.70062 | -30.86648 | 38162 ft | 448 kts | 257° |
| 2026-05-08 01:21 | 36.67570 | -30.93751 | 38164 ft | 446 kts | 257° |
| 2026-05-08 01:21 | 36.65076 | -31.00842 | 38166 ft | 445 kts | 257° |
| 2026-05-08 01:22 | 36.62605 | -31.07856 | 38171 ft | 444 kts | 257° |
| 2026-05-08 01:22 | 36.60111 | -31.14916 | 38175 ft | 444 kts | 257° |
| 2026-05-08 01:23 | 36.57631 | -31.21922 | 38178 ft | 443 kts | 257° |
| 2026-05-08 01:23 | 36.55135 | -31.28955 | 38184 ft | 443 kts | 257° |
| 2026-05-08 01:24 | 36.52655 | -31.35926 | 38184 ft | 443 kts | 257° |
| 2026-05-08 01:24 | 36.50152 | -31.42945 | 38184 ft | 443 kts | 257° |
| 2026-05-08 01:25 | 36.47662 | -31.49914 | 38202 ft | 442 kts | 256° |
| 2026-05-08 01:25 | 36.45153 | -31.56920 | 38192 ft | 443 kts | 256° |
| 2026-05-08 01:26 | 36.42644 | -31.63907 | 38193 ft | 442 kts | 256° |
| 2026-05-08 01:26 | 36.40147 | -31.70845 | 38197 ft | 442 kts | 256° |
| 2026-05-08 01:27 | 36.37628 | -31.77829 | 38200 ft | 441 kts | 256° |
| 2026-05-08 01:27 | 36.35131 | -31.84736 | 38202 ft | 441 kts | 256° |
| 2026-05-08 01:28 | 36.32612 | -31.91691 | 38205 ft | 440 kts | 256° |
| 2026-05-08 01:28 | 36.30111 | -31.98579 | 38205 ft | 440 kts | 256° |
| 2026-05-08 01:29 | 36.27591 | -32.05502 | 38210 ft | 439 kts | 255° |
| 2026-05-08 01:29 | 36.25073 | -32.12409 | 38217 ft | 439 kts | 255° |
| 2026-05-08 01:30 | 36.22572 | -32.19250 | 38216 ft | 438 kts | 255° |
| 2026-05-08 01:30 | 36.20053 | -32.26128 | 38211 ft | 438 kts | 255° |
| 2026-05-08 01:31 | 36.17535 | -32.32987 | 38216 ft | 437 kts | 255° |
| 2026-05-08 01:31 | 36.15024 | -32.39813 | 38216 ft | 437 kts | 255° |
| 2026-05-08 01:32 | 36.12499 | -32.46661 | 38216 ft | 437 kts | 255° |
| 2026-05-08 01:32 | 36.09970 | -32.53505 | 38217 ft | 436 kts | 255° |
| 2026-05-08 01:33 | 36.07456 | -32.60295 | 38221 ft | 436 kts | 254° |
| 2026-05-08 01:33 | 36.04920 | -32.67127 | 38218 ft | 436 kts | 254° |
| 2026-05-08 01:34 | 36.02400 | -32.73902 | 38223 ft | 436 kts | 254° |
| 2026-05-08 01:34 | 35.99858 | -32.80722 | 38225 ft | 436 kts | 254° |
| 2026-05-08 01:35 | 35.97327 | -32.87498 | 38227 ft | 436 kts | 254° |
| 2026-05-08 01:35 | 35.94779 | -32.94305 | 38225 ft | 436 kts | 254° |
| 2026-05-08 01:36 | 35.92225 | -33.01112 | 38229 ft | 436 kts | 254° |
| 2026-05-08 01:36 | 35.89684 | -33.07873 | 38231 ft | 436 kts | 253° |
| 2026-05-08 01:37 | 35.87121 | -33.14676 | 38234 ft | 437 kts | 253° |
| 2026-05-08 01:37 | 35.84554 | -33.21474 | 38230 ft | 437 kts | 253° |
| 2026-05-08 01:38 | 35.81999 | -33.28227 | 38234 ft | 437 kts | 253° |
| 2026-05-08 01:38 | 35.79424 | -33.35018 | 38233 ft | 437 kts | 253° |
| 2026-05-08 01:39 | 35.76844 | -33.41807 | 38232 ft | 437 kts | 253° |
| 2026-05-08 01:39 | 35.74274 | -33.48556 | 38245 ft | 438 kts | 253° |
| 2026-05-08 01:40 | 35.71679 | -33.55358 | 38239 ft | 438 kts | 253° |
| 2026-05-08 01:40 | 35.69075 | -33.62166 | 38238 ft | 439 kts | 253° |
| 2026-05-08 01:41 | 35.66482 | -33.68932 | 38241 ft | 439 kts | 253° |
| 2026-05-08 01:41 | 35.63865 | -33.75748 | 38248 ft | 439 kts | 252° |
| 2026-05-08 01:42 | 35.61264 | -33.82506 | 38242 ft | 440 kts | 252° |
| 2026-05-08 01:42 | 35.58642 | -33.89303 | 38245 ft | 440 kts | 252° |
| 2026-05-08 01:43 | 35.56009 | -33.96118 | 38250 ft | 440 kts | 252° |
| 2026-05-08 01:43 | 35.53377 | -34.02914 | 38248 ft | 441 kts | 252° |
| 2026-05-08 01:44 | 35.50744 | -34.09696 | 38251 ft | 441 kts | 252° |
| 2026-05-08 01:44 | 35.48106 | -34.16480 | 38246 ft | 442 kts | 252° |
| 2026-05-08 01:45 | 35.45451 | -34.23291 | 38255 ft | 442 kts | 252° |
| 2026-05-08 01:45 | 35.42805 | -34.30067 | 38254 ft | 442 kts | 252° |
| 2026-05-08 01:46 | 35.40140 | -34.36877 | 38264 ft | 443 kts | 252° |
| 2026-05-08 01:46 | 35.37479 | -34.43661 | 38259 ft | 443 kts | 251° |
| 2026-05-08 01:47 | 35.34801 | -34.50476 | 38260 ft | 443 kts | 251° |
| 2026-05-08 01:47 | 35.32114 | -34.57298 | 38264 ft | 444 kts | 251° |
| 2026-05-08 01:48 | 35.28097 | -34.67472 | 38263 ft | 444 kts | 251° |
| 2026-05-08 01:48 | 35.25395 | -34.74296 | 38265 ft | 444 kts | 251° |
| 2026-05-08 01:49 | 35.22711 | -34.81062 | 38268 ft | 445 kts | 251° |
| 2026-05-08 01:49 | 35.19999 | -34.87883 | 38275 ft | 445 kts | 251° |
| 2026-05-08 01:50 | 35.17294 | -34.94674 | 38272 ft | 445 kts | 251° |
| 2026-05-08 01:50 | 35.14571 | -35.01496 | 38275 ft | 446 kts | 251° |
| 2026-05-08 01:51 | 35.11859 | -35.08274 | 38276 ft | 446 kts | 250° |
| 2026-05-08 01:51 | 35.09126 | -35.15091 | 38274 ft | 446 kts | 250° |
| 2026-05-08 01:52 | 35.06402 | -35.21875 | 38276 ft | 446 kts | 250° |
| 2026-05-08 01:52 | 35.03662 | -35.28681 | 38274 ft | 447 kts | 250° |
| 2026-05-08 01:53 | 35.00918 | -35.35484 | 38283 ft | 447 kts | 250° |
| 2026-05-08 01:53 | 34.98177 | -35.42265 | 38288 ft | 447 kts | 250° |
| 2026-05-08 01:54 | 34.95419 | -35.49077 | 38286 ft | 448 kts | 250° |
| 2026-05-08 01:54 | 34.92668 | -35.55854 | 38283 ft | 448 kts | 250° |
| 2026-05-08 01:55 | 34.89897 | -35.62668 | 38288 ft | 448 kts | 250° |
| 2026-05-08 01:55 | 34.87117 | -35.69491 | 38289 ft | 448 kts | 250° |
| 2026-05-08 01:56 | 34.84348 | -35.76274 | 38288 ft | 449 kts | 249° |
| 2026-05-08 01:56 | 34.81564 | -35.83079 | 38291 ft | 449 kts | 249° |
| 2026-05-08 01:57 | 34.78790 | -35.89846 | 38293 ft | 449 kts | 249° |
| 2026-05-08 01:57 | 34.75999 | -35.96639 | 38288 ft | 449 kts | 249° |
| 2026-05-08 01:58 | 34.73201 | -36.03436 | 38303 ft | 449 kts | 249° |
| 2026-05-08 01:58 | 34.70416 | -36.10189 | 38294 ft | 449 kts | 249° |
| 2026-05-08 01:59 | 34.67610 | -36.16976 | 38287 ft | 449 kts | 249° |
| 2026-05-08 01:59 | 34.64802 | -36.23756 | 38298 ft | 449 kts | 249° |
| 2026-05-08 02:00 | 34.62006 | -36.30494 | 38305 ft | 449 kts | 249° |
| 2026-05-08 02:00 | 34.59188 | -36.37272 | 38301 ft | 449 kts | 249° |
| 2026-05-08 02:01 | 34.56365 | -36.44047 | 38301 ft | 449 kts | 248° |
| 2026-05-08 02:01 | 34.53560 | -36.50765 | 38301 ft | 449 kts | 248° |
| 2026-05-08 02:02 | 34.50735 | -36.57520 | 38299 ft | 449 kts | 248° |
| 2026-05-08 02:02 | 34.48380 | -36.63140 | 38304 ft | 449 kts | 248° |
| 2026-05-08 02:03 | 34.45076 | -36.71009 | 38307 ft | 449 kts | 248° |
| 2026-05-08 02:03 | 34.42712 | -36.76628 | 38303 ft | 450 kts | 248° |
| 2026-05-08 02:04 | 34.39865 | -36.83382 | 38303 ft | 450 kts | 248° |
| 2026-05-08 02:04 | 34.37008 | -36.90146 | 38305 ft | 450 kts | 248° |
| 2026-05-08 02:05 | 34.34168 | -36.96858 | 38306 ft | 450 kts | 248° |
| 2026-05-08 02:05 | 34.31302 | -37.03617 | 38302 ft | 451 kts | 248° |
| 2026-05-08 02:06 | 34.28447 | -37.10337 | 38304 ft | 451 kts | 248° |
| 2026-05-08 02:06 | 34.25570 | -37.17095 | 38319 ft | 451 kts | 247° |
| 2026-05-08 02:07 | 34.22688 | -37.23853 | 38313 ft | 451 kts | 247° |
| 2026-05-08 02:07 | 34.19819 | -37.30565 | 38308 ft | 451 kts | 247° |
| 2026-05-08 02:08 | 34.16933 | -37.37306 | 38308 ft | 451 kts | 247° |
| 2026-05-08 02:08 | 34.14038 | -37.44054 | 38307 ft | 451 kts | 247° |
| 2026-05-08 02:09 | 34.11160 | -37.50747 | 38312 ft | 451 kts | 247° |
| 2026-05-08 02:09 | 34.08258 | -37.57484 | 38309 ft | 451 kts | 247° |
| 2026-05-08 02:10 | 34.05355 | -37.64213 | 38308 ft | 451 kts | 247° |
| 2026-05-08 02:10 | 34.02470 | -37.70884 | 38316 ft | 451 kts | 246° |
| 2026-05-08 02:11 | 33.99569 | -37.77580 | 38314 ft | 450 kts | 246° |
| 2026-05-08 02:11 | 33.96685 | -37.84225 | 38310 ft | 449 kts | 246° |
| 2026-05-08 02:12 | 33.93781 | -37.90902 | 38310 ft | 449 kts | 246° |
| 2026-05-08 02:12 | 33.90878 | -37.97566 | 38311 ft | 448 kts | 246° |
| 2026-05-08 02:13 | 33.87989 | -38.04182 | 38312 ft | 448 kts | 246° |
| 2026-05-08 02:13 | 33.85084 | -38.10824 | 38312 ft | 448 kts | 246° |
| 2026-05-08 02:14 | 33.82193 | -38.17421 | 38312 ft | 447 kts | 246° |
| 2026-05-08 02:14 | 33.79286 | -38.24043 | 38305 ft | 447 kts | 246° |
| 2026-05-08 02:15 | 33.76374 | -38.30662 | 38307 ft | 447 kts | 246° |
| 2026-05-08 02:15 | 33.73484 | -38.37220 | 38307 ft | 446 kts | 246° |
| 2026-05-08 02:16 | 33.70570 | -38.43820 | 38311 ft | 446 kts | 246° |
| 2026-05-08 02:16 | 33.67669 | -38.50377 | 38310 ft | 446 kts | 245° |
| 2026-05-08 02:17 | 33.64744 | -38.56976 | 38306 ft | 446 kts | 245° |
| 2026-05-08 02:17 | 33.61837 | -38.63525 | 38309 ft | 446 kts | 245° |
| 2026-05-08 02:18 | 33.58911 | -38.70102 | 38308 ft | 446 kts | 245° |
| 2026-05-08 02:18 | 33.56003 | -38.76625 | 38307 ft | 446 kts | 245° |
| 2026-05-08 02:19 | 33.53065 | -38.83205 | 38310 ft | 446 kts | 245° |
| 2026-05-08 02:19 | 33.50148 | -38.89725 | 38307 ft | 446 kts | 245° |
| 2026-05-08 02:20 | 33.47208 | -38.96285 | 38309 ft | 446 kts | 245° |
| 2026-05-08 02:20 | 33.44266 | -39.02838 | 38305 ft | 446 kts | 245° |
| 2026-05-08 02:21 | 33.41339 | -39.09345 | 38312 ft | 446 kts | 245° |
| 2026-05-08 02:21 | 33.38391 | -39.15885 | 38304 ft | 445 kts | 245° |
| 2026-05-08 02:22 | 33.35459 | -39.22379 | 38309 ft | 445 kts | 245° |
| 2026-05-08 02:22 | 33.32510 | -39.28900 | 38307 ft | 445 kts | 244° |
| 2026-05-08 02:23 | 33.29554 | -39.35423 | 38307 ft | 445 kts | 244° |
| 2026-05-08 02:23 | 33.26600 | -39.41930 | 38305 ft | 445 kts | 244° |
| 2026-05-08 02:24 | 33.23662 | -39.48388 | 38306 ft | 445 kts | 244° |
| 2026-05-08 02:24 | 33.20701 | -39.54888 | 38304 ft | 445 kts | 244° |
| 2026-05-08 02:25 | 33.17757 | -39.61338 | 38308 ft | 445 kts | 244° |
| 2026-05-08 02:25 | 33.14782 | -39.67843 | 38306 ft | 444 kts | 244° |
| 2026-05-08 02:26 | 33.11812 | -39.74327 | 38302 ft | 445 kts | 244° |
| 2026-05-08 02:26 | 33.08861 | -39.80756 | 38301 ft | 444 kts | 244° |
| 2026-05-08 02:27 | 33.05882 | -39.87235 | 38303 ft | 444 kts | 244° |
| 2026-05-08 02:27 | 33.02917 | -39.93672 | 38298 ft | 444 kts | 244° |
| 2026-05-08 02:28 | 32.99801 | -40.00057 | 38295 ft | 447 kts | 238° |
| 2026-05-08 02:28 | 32.96035 | -40.05924 | 38300 ft | 448 kts | 235° |
| 2026-05-08 02:29 | 32.92115 | -40.11717 | 38295 ft | 448 kts | 234° |
| 2026-05-08 02:29 | 32.88199 | -40.17454 | 38299 ft | 448 kts | 234° |
| 2026-05-08 02:30 | 32.84264 | -40.23231 | 38291 ft | 448 kts | 234° |
| 2026-05-08 02:30 | 32.80342 | -40.28999 | 38291 ft | 448 kts | 234° |
| 2026-05-08 02:31 | 32.76444 | -40.34726 | 38292 ft | 447 kts | 234° |
| 2026-05-08 02:31 | 32.72518 | -40.40483 | 38286 ft | 447 kts | 234° |
| 2026-05-08 02:32 | 32.68628 | -40.46179 | 38300 ft | 447 kts | 234° |
| 2026-05-08 02:32 | 32.64698 | -40.51925 | 38294 ft | 447 kts | 234° |
| 2026-05-08 02:33 | 32.60774 | -40.57653 | 38294 ft | 447 kts | 234° |
| 2026-05-08 02:33 | 32.56865 | -40.63350 | 38287 ft | 446 kts | 234° |
| 2026-05-08 02:34 | 32.52943 | -40.69058 | 38285 ft | 446 kts | 234° |
| 2026-05-08 02:34 | 32.49044 | -40.74723 | 38284 ft | 446 kts | 234° |
| 2026-05-08 02:35 | 32.45111 | -40.80429 | 38281 ft | 445 kts | 234° |
| 2026-05-08 02:35 | 32.41191 | -40.86107 | 38283 ft | 445 kts | 234° |
| 2026-05-08 02:36 | 32.37288 | -40.91753 | 38279 ft | 445 kts | 233° |
| 2026-05-08 02:36 | 32.33352 | -40.97437 | 38277 ft | 445 kts | 233° |
| 2026-05-08 02:37 | 32.29438 | -41.03081 | 38275 ft | 444 kts | 233° |
| 2026-05-08 02:37 | 32.25532 | -41.08705 | 38273 ft | 444 kts | 233° |
| 2026-05-08 02:38 | 32.21602 | -41.14356 | 38272 ft | 444 kts | 233° |
| 2026-05-08 02:38 | 32.17693 | -41.19967 | 38271 ft | 443 kts | 233° |
| 2026-05-08 02:39 | 32.13792 | -41.25559 | 38270 ft | 443 kts | 233° |
| 2026-05-08 02:39 | 32.09859 | -41.31188 | 38268 ft | 443 kts | 233° |
| 2026-05-08 02:40 | 32.05927 | -41.36807 | 38266 ft | 443 kts | 233° |
| 2026-05-08 02:40 | 32.01997 | -41.42416 | 38270 ft | 443 kts | 233° |
| 2026-05-08 02:41 | 31.98086 | -41.47988 | 38265 ft | 443 kts | 233° |
| 2026-05-08 02:41 | 31.94150 | -41.53589 | 38262 ft | 443 kts | 233° |
| 2026-05-08 02:42 | 31.90235 | -41.59151 | 38261 ft | 442 kts | 233° |
| 2026-05-08 02:42 | 31.86316 | -41.64710 | 38265 ft | 442 kts | 233° |
| 2026-05-08 02:43 | 31.82383 | -41.70282 | 38259 ft | 442 kts | 233° |
| 2026-05-08 02:43 | 31.78444 | -41.75853 | 38257 ft | 442 kts | 233° |
| 2026-05-08 02:44 | 31.74530 | -41.81381 | 38257 ft | 442 kts | 233° |
| 2026-05-08 02:44 | 31.70591 | -41.86936 | 38255 ft | 442 kts | 232° |
| 2026-05-08 02:45 | 31.66654 | -41.92481 | 38254 ft | 441 kts | 232° |
| 2026-05-08 02:45 | 31.62731 | -41.97997 | 38252 ft | 441 kts | 232° |
| 2026-05-08 02:46 | 31.58789 | -42.03533 | 38259 ft | 441 kts | 232° |
| 2026-05-08 02:46 | 31.54864 | -42.09037 | 38256 ft | 441 kts | 232° |
| 2026-05-08 02:47 | 31.50916 | -42.14564 | 38252 ft | 441 kts | 232° |
| 2026-05-08 02:47 | 31.46996 | -42.20045 | 38251 ft | 441 kts | 232° |
| 2026-05-08 02:48 | 31.43051 | -42.25553 | 38248 ft | 441 kts | 232° |
| 2026-05-08 02:48 | 31.39128 | -42.31021 | 38250 ft | 440 kts | 232° |
| 2026-05-08 02:49 | 31.35181 | -42.36516 | 38249 ft | 440 kts | 232° |
| 2026-05-08 02:49 | 31.31250 | -42.41981 | 38247 ft | 440 kts | 232° |
| 2026-05-08 02:50 | 31.27299 | -42.47466 | 38249 ft | 440 kts | 232° |
| 2026-05-08 02:50 | 31.23344 | -42.52948 | 38248 ft | 440 kts | 232° |
| 2026-05-08 02:51 | 31.19425 | -42.58373 | 38251 ft | 440 kts | 232° |
| 2026-05-08 02:51 | 31.15473 | -42.63835 | 38245 ft | 439 kts | 232° |
| 2026-05-08 02:52 | 31.11517 | -42.69296 | 38241 ft | 440 kts | 232° |
| 2026-05-08 02:52 | 31.07587 | -42.74712 | 38242 ft | 439 kts | 232° |
| 2026-05-08 02:53 | 31.03638 | -42.80148 | 38241 ft | 439 kts | 232° |
| 2026-05-08 02:53 | 31.00339 | -42.84683 | 38242 ft | 439 kts | 232° |
| 2026-05-08 02:54 | 30.96372 | -42.90128 | 38243 ft | 439 kts | 231° |
| 2026-05-08 02:54 | 30.92433 | -42.95528 | 38241 ft | 439 kts | 231° |
| 2026-05-08 02:55 | 30.86509 | -43.03636 | 38239 ft | 439 kts | 231° |
| 2026-05-08 02:56 | 30.82540 | -43.09058 | 38237 ft | 439 kts | 231° |
| 2026-05-08 02:56 | 30.78576 | -43.14467 | 38235 ft | 439 kts | 231° |
| 2026-05-08 02:57 | 30.74635 | -43.19836 | 38235 ft | 438 kts | 231° |
| 2026-05-08 02:57 | 30.70661 | -43.25242 | 38233 ft | 438 kts | 231° |
| 2026-05-08 02:58 | 30.66724 | -43.30592 | 38232 ft | 438 kts | 231° |
| 2026-05-08 02:58 | 30.62751 | -43.35982 | 38233 ft | 438 kts | 231° |
| 2026-05-08 02:59 | 30.58786 | -43.41353 | 38232 ft | 438 kts | 231° |
| 2026-05-08 02:59 | 30.54838 | -43.46696 | 38229 ft | 438 kts | 231° |
| 2026-05-08 03:00 | 30.50863 | -43.52066 | 38225 ft | 438 kts | 231° |
| 2026-05-08 03:00 | 30.46890 | -43.57426 | 38228 ft | 438 kts | 231° |
| 2026-05-08 03:01 | 30.42939 | -43.62750 | 38223 ft | 438 kts | 231° |
| 2026-05-08 03:01 | 30.38954 | -43.68113 | 38229 ft | 438 kts | 231° |
| 2026-05-08 03:02 | 30.34971 | -43.73465 | 38224 ft | 438 kts | 231° |
| 2026-05-08 03:02 | 30.31011 | -43.78779 | 38221 ft | 437 kts | 231° |
| 2026-05-08 03:03 | 30.27049 | -43.84089 | 38222 ft | 437 kts | 230° |
| 2026-05-08 03:03 | 30.23057 | -43.89432 | 38225 ft | 437 kts | 230° |
| 2026-05-08 03:04 | 30.19074 | -43.94756 | 38221 ft | 437 kts | 230° |
| 2026-05-08 03:04 | 30.15112 | -44.00044 | 38222 ft | 436 kts | 230° |
| 2026-05-08 03:05 | 30.11128 | -44.05355 | 38218 ft | 436 kts | 230° |
| 2026-05-08 03:05 | 30.07174 | -44.10618 | 38220 ft | 436 kts | 230° |
| 2026-05-08 03:06 | 30.03189 | -44.15917 | 38217 ft | 436 kts | 230° |
| 2026-05-08 03:06 | 29.99196 | -44.21218 | 38218 ft | 436 kts | 230° |
| 2026-05-08 03:07 | 29.95223 | -44.26484 | 38216 ft | 436 kts | 230° |
| 2026-05-08 03:07 | 29.91229 | -44.31774 | 38213 ft | 436 kts | 230° |
| 2026-05-08 03:08 | 29.87264 | -44.37017 | 38214 ft | 436 kts | 230° |
| 2026-05-08 03:08 | 29.83263 | -44.42301 | 38215 ft | 436 kts | 230° |
| 2026-05-08 03:09 | 29.79285 | -44.47547 | 38210 ft | 436 kts | 230° |
| 2026-05-08 03:09 | 29.75288 | -44.52812 | 38210 ft | 436 kts | 230° |
| 2026-05-08 03:10 | 29.71293 | -44.58067 | 38211 ft | 436 kts | 230° |
| 2026-05-08 03:10 | 29.67324 | -44.63280 | 38208 ft | 436 kts | 230° |
| 2026-05-08 03:11 | 29.63319 | -44.68535 | 38207 ft | 436 kts | 230° |
| 2026-05-08 03:11 | 29.59342 | -44.73746 | 38206 ft | 435 kts | 229° |
| 2026-05-08 03:12 | 29.55336 | -44.78988 | 38207 ft | 435 kts | 229° |
| 2026-05-08 03:12 | 29.51338 | -44.84213 | 38205 ft | 435 kts | 229° |
| 2026-05-08 03:13 | 29.47356 | -44.89409 | 38205 ft | 435 kts | 229° |
| 2026-05-08 03:13 | 29.43347 | -44.94635 | 38209 ft | 435 kts | 229° |
| 2026-05-08 03:14 | 29.39339 | -44.99853 | 38206 ft | 435 kts | 229° |
| 2026-05-08 03:14 | 29.35360 | -45.05025 | 38206 ft | 435 kts | 229° |
| 2026-05-08 03:15 | 29.31350 | -45.10232 | 38201 ft | 435 kts | 229° |
| 2026-05-08 03:15 | 29.27327 | -45.15448 | 38202 ft | 435 kts | 229° |
| 2026-05-08 03:16 | 29.23328 | -45.20628 | 38203 ft | 435 kts | 229° |
| 2026-05-08 03:16 | 29.19308 | -45.25827 | 38199 ft | 435 kts | 229° |
| 2026-05-08 03:17 | 29.15305 | -45.30998 | 38198 ft | 435 kts | 229° |
| 2026-05-08 03:17 | 29.11283 | -45.36187 | 38194 ft | 435 kts | 229° |
| 2026-05-08 03:18 | 29.07290 | -45.41331 | 38194 ft | 435 kts | 229° |
| 2026-05-08 03:18 | 29.03266 | -45.46510 | 38189 ft | 435 kts | 229° |
| 2026-05-08 03:19 | 28.99235 | -45.51690 | 38190 ft | 435 kts | 229° |
| 2026-05-08 03:19 | 28.95224 | -45.56839 | 38191 ft | 435 kts | 229° |
| 2026-05-08 03:20 | 28.91191 | -45.62009 | 38191 ft | 435 kts | 229° |
| 2026-05-08 03:20 | 28.87151 | -45.67181 | 38189 ft | 435 kts | 229° |
| 2026-05-08 03:21 | 28.83137 | -45.72314 | 38188 ft | 435 kts | 229° |
| 2026-05-08 03:21 | 28.79091 | -45.77481 | 38186 ft | 435 kts | 229° |
| 2026-05-08 03:22 | 28.75080 | -45.82596 | 38188 ft | 435 kts | 228° |
| 2026-05-08 03:22 | 28.71030 | -45.87756 | 38182 ft | 435 kts | 228° |
| 2026-05-08 03:23 | 28.66983 | -45.92905 | 38184 ft | 436 kts | 228° |
| 2026-05-08 03:23 | 28.62947 | -45.98033 | 38185 ft | 436 kts | 228° |
| 2026-05-08 03:24 | 28.58922 | -46.03142 | 38182 ft | 436 kts | 228° |
| 2026-05-08 03:24 | 28.54870 | -46.08278 | 38181 ft | 436 kts | 228° |
| 2026-05-08 03:25 | 28.50806 | -46.13423 | 38182 ft | 436 kts | 228° |
| 2026-05-08 03:25 | 28.46748 | -46.18553 | 38183 ft | 436 kts | 228° |
| 2026-05-08 03:26 | 28.42709 | -46.23654 | 38184 ft | 436 kts | 228° |
| 2026-05-08 03:26 | 28.38640 | -46.28785 | 38177 ft | 436 kts | 228° |
| 2026-05-08 03:27 | 28.34594 | -46.33883 | 38175 ft | 436 kts | 228° |
| 2026-05-08 03:27 | 28.30522 | -46.39006 | 38178 ft | 436 kts | 228° |
| 2026-05-08 03:28 | 28.26469 | -46.44099 | 38174 ft | 436 kts | 228° |
| 2026-05-08 03:28 | 28.22392 | -46.49216 | 38175 ft | 436 kts | 228° |
| 2026-05-08 03:29 | 28.18331 | -46.54305 | 38172 ft | 436 kts | 228° |
| 2026-05-08 03:29 | 28.14252 | -46.59413 | 38176 ft | 436 kts | 228° |
| 2026-05-08 03:30 | 28.08152 | -46.67037 | 38174 ft | 436 kts | 228° |
| 2026-05-08 03:31 | 27.99975 | -46.77237 | 38175 ft | 436 kts | 228° |
| 2026-05-08 03:32 | 27.93866 | -46.84842 | 38168 ft | 437 kts | 228° |
| 2026-05-08 03:32 | 27.89769 | -46.89935 | 38167 ft | 437 kts | 228° |
| 2026-05-08 03:33 | 27.85678 | -46.95013 | 38169 ft | 436 kts | 228° |
| 2026-05-08 03:33 | 27.81598 | -47.00071 | 38169 ft | 437 kts | 228° |
| 2026-05-08 03:34 | 27.77526 | -47.05113 | 38166 ft | 437 kts | 227° |
| 2026-05-08 03:34 | 27.73423 | -47.10189 | 38163 ft | 437 kts | 227° |
| 2026-05-08 03:35 | 27.69316 | -47.15263 | 38163 ft | 437 kts | 227° |
| 2026-05-08 03:35 | 27.65233 | -47.20301 | 38160 ft | 437 kts | 227° |
| 2026-05-08 03:36 | 27.61122 | -47.25367 | 38159 ft | 437 kts | 227° |
| 2026-05-08 03:36 | 27.57011 | -47.30428 | 38159 ft | 437 kts | 227° |
| 2026-05-08 03:37 | 27.52918 | -47.35459 | 38160 ft | 437 kts | 227° |
| 2026-05-08 03:37 | 27.48797 | -47.40521 | 38160 ft | 437 kts | 227° |
| 2026-05-08 03:38 | 27.44691 | -47.45557 | 38157 ft | 437 kts | 227° |
| 2026-05-08 03:38 | 27.40567 | -47.50609 | 38160 ft | 437 kts | 227° |
| 2026-05-08 03:39 | 27.36469 | -47.55623 | 38158 ft | 438 kts | 227° |
| 2026-05-08 03:39 | 27.32340 | -47.60671 | 38153 ft | 438 kts | 227° |
| 2026-05-08 03:40 | 27.28232 | -47.65686 | 38150 ft | 438 kts | 227° |
| 2026-05-08 03:40 | 27.24095 | -47.70729 | 38151 ft | 438 kts | 227° |
| 2026-05-08 03:41 | 27.20654 | -47.74920 | 38153 ft | 438 kts | 227° |
| 2026-05-08 03:41 | 27.16515 | -47.79957 | 38152 ft | 438 kts | 227° |
| 2026-05-08 03:42 | 27.11696 | -47.85812 | 38153 ft | 439 kts | 227° |
| 2026-05-08 03:42 | 27.08220 | -47.90031 | 38148 ft | 439 kts | 227° |
| 2026-05-08 03:43 | 27.04088 | -47.95041 | 38148 ft | 439 kts | 227° |
| 2026-05-08 03:43 | 26.99928 | -48.00080 | 38151 ft | 439 kts | 227° |
| 2026-05-08 03:44 | 26.95575 | -48.04850 | 38148 ft | 440 kts | 223° |
| 2026-05-08 03:44 | 26.90960 | -48.09398 | 38147 ft | 440 kts | 222° |
| 2026-05-08 03:45 | 26.86399 | -48.13927 | 38147 ft | 440 kts | 223° |
| 2026-05-08 03:45 | 26.81834 | -48.18549 | 38148 ft | 441 kts | 223° |
| 2026-05-08 03:46 | 26.77325 | -48.23148 | 38142 ft | 441 kts | 223° |
| 2026-05-08 03:46 | 26.72785 | -48.27778 | 38144 ft | 441 kts | 223° |
| 2026-05-08 03:47 | 26.68261 | -48.32381 | 38143 ft | 441 kts | 223° |
| 2026-05-08 03:47 | 26.63709 | -48.37007 | 38142 ft | 441 kts | 223° |
| 2026-05-08 03:48 | 26.59156 | -48.41626 | 38140 ft | 441 kts | 223° |
| 2026-05-08 03:48 | 26.54623 | -48.46221 | 38137 ft | 442 kts | 223° |
| 2026-05-08 03:49 | 26.50062 | -48.50838 | 38140 ft | 442 kts | 223° |
| 2026-05-08 03:49 | 26.45520 | -48.55431 | 38135 ft | 442 kts | 223° |
| 2026-05-08 03:50 | 26.40946 | -48.60053 | 38134 ft | 443 kts | 223° |
| 2026-05-08 03:50 | 26.36366 | -48.64674 | 38133 ft | 443 kts | 223° |
| 2026-05-08 03:51 | 26.31815 | -48.69261 | 38135 ft | 443 kts | 223° |
| 2026-05-08 03:51 | 26.27225 | -48.73882 | 38135 ft | 443 kts | 223° |
| 2026-05-08 03:52 | 26.22664 | -48.78469 | 38129 ft | 444 kts | 223° |
| 2026-05-08 03:52 | 26.18097 | -48.83058 | 38128 ft | 444 kts | 223° |
| 2026-05-08 03:53 | 26.13496 | -48.87675 | 38139 ft | 444 kts | 223° |
| 2026-05-08 03:53 | 26.08893 | -48.92289 | 38136 ft | 445 kts | 223° |
| 2026-05-08 03:54 | 26.04308 | -48.96879 | 38126 ft | 445 kts | 223° |
| 2026-05-08 03:54 | 25.99703 | -49.01485 | 38120 ft | 445 kts | 223° |
| 2026-05-08 03:55 | 25.95093 | -49.06091 | 38130 ft | 445 kts | 223° |
| 2026-05-08 03:55 | 25.90498 | -49.10676 | 38137 ft | 445 kts | 223° |
| 2026-05-08 03:56 | 25.85873 | -49.15287 | 38134 ft | 446 kts | 223° |
| 2026-05-08 03:56 | 25.81252 | -49.19888 | 38125 ft | 446 kts | 223° |
| 2026-05-08 03:57 | 25.76653 | -49.24464 | 38130 ft | 446 kts | 223° |
| 2026-05-08 03:57 | 25.72018 | -49.29069 | 38126 ft | 446 kts | 223° |
| 2026-05-08 03:58 | 25.67404 | -49.33648 | 38122 ft | 447 kts | 223° |
| 2026-05-08 03:58 | 25.62761 | -49.38252 | 38129 ft | 447 kts | 223° |
| 2026-05-08 03:59 | 25.58138 | -49.42830 | 38128 ft | 447 kts | 223° |
| 2026-05-08 03:59 | 25.53492 | -49.47427 | 38126 ft | 447 kts | 223° |
| 2026-05-08 04:00 | 25.48862 | -49.52002 | 38117 ft | 448 kts | 223° |
| 2026-05-08 04:00 | 25.44208 | -49.56596 | 38125 ft | 448 kts | 223° |
| 2026-05-08 04:01 | 25.39547 | -49.61193 | 38116 ft | 448 kts | 223° |
| 2026-05-08 04:01 | 25.34917 | -49.65754 | 38116 ft | 448 kts | 223° |
| 2026-05-08 04:02 | 25.30245 | -49.70352 | 38119 ft | 448 kts | 223° |
| 2026-05-08 04:02 | 25.25597 | -49.74919 | 38118 ft | 449 kts | 223° |
| 2026-05-08 04:03 | 25.20929 | -49.79503 | 38114 ft | 449 kts | 223° |
| 2026-05-08 04:03 | 25.13939 | -49.86357 | 38113 ft | 449 kts | 223° |
| 2026-05-08 04:04 | 25.09257 | -49.90942 | 38106 ft | 449 kts | 223° |
| 2026-05-08 04:04 | 25.04577 | -49.95521 | 38111 ft | 449 kts | 223° |
| 2026-05-08 04:05 | 25.00008 | -50.00162 | 38113 ft | 448 kts | 228° |
| 2026-05-08 04:05 | 24.95896 | -50.05341 | 38111 ft | 448 kts | 230° |
| 2026-05-08 04:06 | 24.91886 | -50.10605 | 38102 ft | 448 kts | 231° |
| 2026-05-08 04:06 | 24.87888 | -50.15882 | 38110 ft | 449 kts | 231° |
| 2026-05-08 04:07 | 24.83896 | -50.21127 | 38105 ft | 449 kts | 231° |
| 2026-05-08 04:07 | 24.79863 | -50.26408 | 38109 ft | 449 kts | 230° |
| 2026-05-08 04:08 | 24.75830 | -50.31679 | 38102 ft | 449 kts | 230° |
| 2026-05-08 04:08 | 24.71799 | -50.36942 | 38103 ft | 450 kts | 230° |
| 2026-05-08 04:09 | 24.67787 | -50.42175 | 38100 ft | 450 kts | 230° |
| 2026-05-08 04:09 | 24.63747 | -50.47439 | 38108 ft | 450 kts | 230° |
| 2026-05-08 04:10 | 24.59694 | -50.52714 | 38099 ft | 450 kts | 230° |
| 2026-05-08 04:10 | 24.55664 | -50.57954 | 38104 ft | 451 kts | 230° |
| 2026-05-08 04:11 | 24.51600 | -50.63231 | 38103 ft | 451 kts | 230° |
| 2026-05-08 04:11 | 24.47544 | -50.68494 | 38109 ft | 451 kts | 230° |
| 2026-05-08 04:12 | 24.43503 | -50.73729 | 38099 ft | 451 kts | 230° |
| 2026-05-08 04:12 | 24.39438 | -50.78992 | 38104 ft | 452 kts | 230° |
| 2026-05-08 04:13 | 24.35391 | -50.84224 | 38102 ft | 452 kts | 230° |
| 2026-05-08 04:13 | 24.31317 | -50.89487 | 38103 ft | 452 kts | 230° |
| 2026-05-08 04:14 | 24.27236 | -50.94752 | 38101 ft | 452 kts | 230° |
| 2026-05-08 04:14 | 24.23177 | -50.99983 | 38102 ft | 453 kts | 230° |
| 2026-05-08 04:15 | 24.19085 | -51.05253 | 38101 ft | 453 kts | 230° |
| 2026-05-08 04:15 | 24.15009 | -51.10495 | 38102 ft | 453 kts | 230° |
| 2026-05-08 04:16 | 24.10913 | -51.15756 | 38092 ft | 453 kts | 230° |
| 2026-05-08 04:16 | 24.06815 | -51.21014 | 38097 ft | 453 kts | 230° |
| 2026-05-08 04:17 | 24.02742 | -51.26236 | 38096 ft | 453 kts | 230° |
| 2026-05-08 04:17 | 23.98635 | -51.31495 | 38099 ft | 454 kts | 230° |
| 2026-05-08 04:18 | 23.94527 | -51.36750 | 38092 ft | 454 kts | 230° |
| 2026-05-08 04:18 | 23.90443 | -51.41968 | 38100 ft | 454 kts | 230° |
| 2026-05-08 04:19 | 23.86319 | -51.47233 | 38089 ft | 454 kts | 230° |
| 2026-05-08 04:19 | 23.82205 | -51.52478 | 38091 ft | 455 kts | 230° |
| 2026-05-08 04:20 | 23.78110 | -51.57693 | 38099 ft | 455 kts | 230° |
| 2026-05-08 04:20 | 23.73984 | -51.62943 | 38096 ft | 455 kts | 230° |
| 2026-05-08 04:21 | 23.69846 | -51.68203 | 38095 ft | 455 kts | 230° |
| 2026-05-08 04:21 | 23.65736 | -51.73421 | 38092 ft | 455 kts | 230° |
| 2026-05-08 04:22 | 23.61619 | -51.78642 | 38092 ft | 455 kts | 230° |
| 2026-05-08 04:22 | 23.57475 | -51.83893 | 38094 ft | 455 kts | 230° |
| 2026-05-08 04:23 | 23.53349 | -51.89115 | 38093 ft | 455 kts | 230° |
| 2026-05-08 04:23 | 23.49201 | -51.94359 | 38097 ft | 456 kts | 230° |
| 2026-05-08 04:24 | 23.45088 | -51.99554 | 38089 ft | 456 kts | 230° |
| 2026-05-08 04:24 | 23.40941 | -52.04786 | 38095 ft | 456 kts | 230° |
| 2026-05-08 04:25 | 23.36791 | -52.10017 | 38086 ft | 456 kts | 230° |
| 2026-05-08 04:25 | 23.32629 | -52.15257 | 38092 ft | 456 kts | 230° |
| 2026-05-08 04:26 | 23.28503 | -52.20446 | 38091 ft | 456 kts | 230° |
| 2026-05-08 04:26 | 23.24340 | -52.25677 | 38089 ft | 457 kts | 230° |
| 2026-05-08 04:27 | 23.20176 | -52.30903 | 38085 ft | 457 kts | 230° |
| 2026-05-08 04:27 | 23.16710 | -52.35249 | 38088 ft | 457 kts | 229° |
| 2026-05-08 04:28 | 23.12540 | -52.40473 | 38093 ft | 457 kts | 229° |
| 2026-05-08 04:28 | 23.08398 | -52.45656 | 38083 ft | 457 kts | 229° |
| 2026-05-08 04:29 | 23.04216 | -52.50884 | 38099 ft | 457 kts | 229° |
| 2026-05-08 04:29 | 23.00041 | -52.56099 | 38085 ft | 457 kts | 229° |
| 2026-05-08 04:30 | 22.95888 | -52.61279 | 38252 ft | 457 kts | 230° |
| 2026-05-08 04:30 | 22.93803 | -52.63878 | 38103 ft | 456 kts | 230° |
| 2026-05-08 04:30 | 22.91716 | -52.66477 | 38083 ft | 455 kts | 230° |
| 2026-05-08 04:31 | 22.87552 | -52.71663 | 38085 ft | 456 kts | 230° |
| 2026-05-08 04:31 | 22.83410 | -52.76815 | 38084 ft | 456 kts | 230° |
| 2026-05-08 04:32 | 22.79235 | -52.82003 | 38085 ft | 456 kts | 230° |
| 2026-05-08 04:32 | 22.75046 | -52.87203 | 38082 ft | 456 kts | 230° |
| 2026-05-08 04:33 | 22.70890 | -52.92356 | 38084 ft | 456 kts | 230° |
| 2026-05-08 04:33 | 22.66710 | -52.97534 | 38082 ft | 456 kts | 230° |
| 2026-05-08 04:34 | 22.62518 | -53.02722 | 38082 ft | 456 kts | 230° |
| 2026-05-08 04:34 | 22.58361 | -53.07861 | 38080 ft | 456 kts | 230° |
| 2026-05-08 04:35 | 22.54167 | -53.13041 | 38081 ft | 457 kts | 230° |
| 2026-05-08 04:35 | 22.49978 | -53.18210 | 38079 ft | 457 kts | 230° |
| 2026-05-08 04:36 | 22.45775 | -53.23390 | 38080 ft | 457 kts | 230° |
| 2026-05-08 04:36 | 22.41603 | -53.28527 | 38083 ft | 457 kts | 230° |
| 2026-05-08 04:37 | 22.37399 | -53.33698 | 38084 ft | 457 kts | 230° |
| 2026-05-08 04:37 | 22.33227 | -53.38825 | 38078 ft | 457 kts | 230° |
| 2026-05-08 04:38 | 22.29010 | -53.44002 | 38081 ft | 457 kts | 230° |
| 2026-05-08 04:38 | 22.24805 | -53.49160 | 38082 ft | 457 kts | 230° |
| 2026-05-08 04:39 | 22.20622 | -53.54285 | 38083 ft | 457 kts | 230° |
| 2026-05-08 04:39 | 22.16409 | -53.59442 | 38081 ft | 457 kts | 230° |
| 2026-05-08 04:40 | 22.12196 | -53.64594 | 38081 ft | 457 kts | 230° |
| 2026-05-08 04:40 | 22.07991 | -53.69731 | 38078 ft | 456 kts | 230° |
| 2026-05-08 04:41 | 22.03806 | -53.74839 | 38078 ft | 456 kts | 230° |
| 2026-05-08 04:41 | 21.99588 | -53.79982 | 38077 ft | 457 kts | 230° |
| 2026-05-08 04:42 | 21.95393 | -53.85092 | 38080 ft | 457 kts | 230° |
| 2026-05-08 04:42 | 21.91196 | -53.90199 | 38080 ft | 457 kts | 230° |
| 2026-05-08 04:43 | 21.86969 | -53.95338 | 38079 ft | 457 kts | 230° |
| 2026-05-08 04:43 | 21.82742 | -54.00472 | 38079 ft | 457 kts | 230° |
| 2026-05-08 04:44 | 21.78550 | -54.05559 | 38078 ft | 457 kts | 230° |
| 2026-05-08 04:44 | 21.74331 | -54.10673 | 38076 ft | 457 kts | 230° |
| 2026-05-08 04:45 | 21.70095 | -54.15803 | 38073 ft | 457 kts | 230° |
| 2026-05-08 04:45 | 21.65889 | -54.20892 | 38073 ft | 457 kts | 230° |
| 2026-05-08 04:46 | 21.61658 | -54.26006 | 38079 ft | 457 kts | 230° |
| 2026-05-08 04:46 | 21.57431 | -54.31111 | 38079 ft | 457 kts | 230° |
| 2026-05-08 04:47 | 21.53224 | -54.36187 | 38075 ft | 457 kts | 229° |
| 2026-05-08 04:47 | 21.48990 | -54.41289 | 38077 ft | 457 kts | 229° |
| 2026-05-08 04:48 | 21.44781 | -54.46359 | 38074 ft | 457 kts | 229° |
| 2026-05-08 04:48 | 21.40535 | -54.51467 | 38073 ft | 457 kts | 229° |
| 2026-05-08 04:49 | 21.36295 | -54.56563 | 38073 ft | 457 kts | 229° |
| 2026-05-08 04:49 | 21.32082 | -54.61622 | 38071 ft | 457 kts | 229° |
| 2026-05-08 04:50 | 21.27830 | -54.66722 | 38070 ft | 457 kts | 229° |
| 2026-05-08 04:50 | 21.23591 | -54.71803 | 38067 ft | 457 kts | 229° |
| 2026-05-08 04:51 | 21.19376 | -54.76850 | 38075 ft | 457 kts | 229° |
| 2026-05-08 04:51 | 21.15131 | -54.81928 | 38079 ft | 457 kts | 229° |
| 2026-05-08 04:52 | 21.10875 | -54.87016 | 38062 ft | 457 kts | 229° |
| 2026-05-08 04:52 | 21.06643 | -54.92069 | 38061 ft | 457 kts | 229° |
| 2026-05-08 04:53 | 21.02390 | -54.97142 | 38075 ft | 457 kts | 229° |
| 2026-05-08 04:53 | 20.98189 | -55.02219 | 38069 ft | 457 kts | 231° |
| 2026-05-08 04:54 | 20.94282 | -55.07601 | 38071 ft | 456 kts | 234° |
| 2026-05-08 04:54 | 20.90485 | -55.13016 | 38071 ft | 456 kts | 233° |
| 2026-05-08 04:55 | 20.86622 | -55.18419 | 38071 ft | 457 kts | 233° |
| 2026-05-08 04:55 | 20.82739 | -55.23769 | 38069 ft | 457 kts | 233° |
| 2026-05-08 04:56 | 20.78828 | -55.29133 | 38065 ft | 457 kts | 233° |
| 2026-05-08 04:56 | 20.74906 | -55.34509 | 38069 ft | 457 kts | 233° |
| 2026-05-08 04:57 | 20.71026 | -55.39826 | 38066 ft | 457 kts | 233° |
| 2026-05-08 04:57 | 20.67112 | -55.45186 | 38066 ft | 457 kts | 233° |
| 2026-05-08 04:58 | 20.63192 | -55.50548 | 38069 ft | 457 kts | 233° |
| 2026-05-08 04:58 | 20.59295 | -55.55876 | 38068 ft | 457 kts | 233° |
| 2026-05-08 04:59 | 20.55372 | -55.61233 | 38065 ft | 457 kts | 233° |
| 2026-05-08 04:59 | 20.51469 | -55.66557 | 38065 ft | 457 kts | 233° |
| 2026-05-08 05:00 | 20.47548 | -55.71902 | 38064 ft | 457 kts | 233° |
| 2026-05-08 05:00 | 20.43623 | -55.77246 | 38066 ft | 457 kts | 233° |
| 2026-05-08 05:01 | 20.39719 | -55.82558 | 38063 ft | 457 kts | 233° |
| 2026-05-08 05:01 | 20.35783 | -55.87907 | 38064 ft | 458 kts | 233° |
| 2026-05-08 05:02 | 20.31872 | -55.93219 | 38063 ft | 458 kts | 233° |
| 2026-05-08 05:02 | 20.27933 | -55.98562 | 38062 ft | 458 kts | 233° |
| 2026-05-08 05:03 | 20.23991 | -56.03907 | 38059 ft | 457 kts | 233° |
| 2026-05-08 05:03 | 20.20075 | -56.09209 | 38061 ft | 457 kts | 233° |
| 2026-05-08 05:04 | 20.16128 | -56.14550 | 38059 ft | 458 kts | 233° |
| 2026-05-08 05:04 | 20.12202 | -56.19856 | 38064 ft | 458 kts | 233° |
| 2026-05-08 05:05 | 20.08248 | -56.25196 | 38068 ft | 458 kts | 232° |
| 2026-05-08 05:05 | 20.04289 | -56.30539 | 38062 ft | 459 kts | 232° |
| 2026-05-08 05:06 | 20.00360 | -56.35836 | 38062 ft | 459 kts | 232° |
| 2026-05-08 05:06 | 19.96392 | -56.41180 | 38060 ft | 459 kts | 232° |
| 2026-05-08 05:07 | 19.92426 | -56.46517 | 38059 ft | 460 kts | 232° |
| 2026-05-08 05:07 | 19.88476 | -56.51827 | 38058 ft | 460 kts | 232° |
| 2026-05-08 05:08 | 19.84499 | -56.57169 | 38058 ft | 460 kts | 232° |
| 2026-05-08 05:08 | 19.80551 | -56.62469 | 38057 ft | 460 kts | 232° |
| 2026-05-08 05:09 | 19.76569 | -56.67808 | 38055 ft | 460 kts | 232° |
| 2026-05-08 05:09 | 19.72613 | -56.73107 | 38051 ft | 460 kts | 232° |
| 2026-05-08 05:10 | 19.66635 | -56.81107 | 38056 ft | 461 kts | 232° |
| 2026-05-08 05:11 | 19.62665 | -56.86413 | 38056 ft | 461 kts | 232° |
| 2026-05-08 05:11 | 19.58667 | -56.91753 | 38055 ft | 461 kts | 232° |
| 2026-05-08 05:12 | 19.54672 | -56.97083 | 38052 ft | 461 kts | 232° |
| 2026-05-08 05:12 | 19.50693 | -57.02387 | 38058 ft | 461 kts | 232° |
| 2026-05-08 05:13 | 19.46690 | -57.07719 | 38050 ft | 461 kts | 232° |
| 2026-05-08 05:13 | 19.42685 | -57.13049 | 38057 ft | 462 kts | 232° |
| 2026-05-08 05:14 | 19.38699 | -57.18349 | 38058 ft | 462 kts | 232° |
| 2026-05-08 05:14 | 19.34688 | -57.23677 | 38052 ft | 462 kts | 232° |
| 2026-05-08 05:15 | 19.30700 | -57.28970 | 38053 ft | 462 kts | 232° |
| 2026-05-08 05:15 | 19.26677 | -57.34305 | 38050 ft | 463 kts | 232° |
| 2026-05-08 05:16 | 19.23331 | -57.38739 | 38052 ft | 463 kts | 232° |
| 2026-05-08 05:16 | 19.19314 | -57.44057 | 38054 ft | 463 kts | 232° |
| 2026-05-08 05:17 | 19.15274 | -57.49402 | 38056 ft | 464 kts | 232° |
| 2026-05-08 05:17 | 19.11262 | -57.54704 | 38047 ft | 464 kts | 232° |
| 2026-05-08 05:18 | 19.07223 | -57.60038 | 38054 ft | 464 kts | 232° |
| 2026-05-08 05:18 | 19.03178 | -57.65374 | 38049 ft | 464 kts | 232° |
| 2026-05-08 05:19 | 18.99159 | -57.70673 | 38053 ft | 464 kts | 232° |
| 2026-05-08 05:19 | 18.95109 | -57.76007 | 38048 ft | 464 kts | 232° |
| 2026-05-08 05:20 | 18.91054 | -57.81343 | 38044 ft | 465 kts | 232° |
| 2026-05-08 05:20 | 18.87027 | -57.86638 | 38053 ft | 465 kts | 232° |
| 2026-05-08 05:21 | 18.82954 | -57.91988 | 38045 ft | 465 kts | 232° |
| 2026-05-08 05:21 | 18.78918 | -57.97286 | 38050 ft | 465 kts | 232° |
| 2026-05-08 05:22 | 18.74848 | -58.02624 | 38044 ft | 466 kts | 232° |
| 2026-05-08 05:22 | 18.70796 | -58.07934 | 38051 ft | 466 kts | 232° |
| 2026-05-08 05:23 | 18.66749 | -58.13232 | 38048 ft | 466 kts | 232° |
| 2026-05-08 05:23 | 18.62676 | -58.18561 | 38043 ft | 466 kts | 232° |
| 2026-05-08 05:24 | 18.58595 | -58.23895 | 38043 ft | 467 kts | 232° |
| 2026-05-08 05:24 | 18.54534 | -58.29198 | 38041 ft | 467 kts | 232° |
| 2026-05-08 05:25 | 18.50448 | -58.34530 | 38052 ft | 467 kts | 232° |
| 2026-05-08 05:25 | 18.46377 | -58.39838 | 38053 ft | 467 kts | 232° |
| 2026-05-08 05:26 | 18.42289 | -58.45163 | 38048 ft | 467 kts | 232° |
| 2026-05-08 05:26 | 18.38186 | -58.50503 | 38033 ft | 468 kts | 232° |
| 2026-05-08 05:27 | 18.34079 | -58.55844 | 38044 ft | 468 kts | 232° |
| 2026-05-08 05:27 | 18.29995 | -58.61150 | 38045 ft | 468 kts | 232° |
| 2026-05-08 05:28 | 18.25878 | -58.66496 | 38039 ft | 469 kts | 232° |
| 2026-05-08 05:28 | 18.21782 | -58.71809 | 38042 ft | 469 kts | 232° |
| 2026-05-08 05:29 | 18.17690 | -58.77113 | 38042 ft | 469 kts | 232° |
| 2026-05-08 05:29 | 18.13566 | -58.82453 | 38038 ft | 469 kts | 232° |
| 2026-05-08 05:30 | 18.09460 | -58.87767 | 38039 ft | 469 kts | 232° |
| 2026-05-08 05:30 | 18.05337 | -58.93098 | 38039 ft | 469 kts | 232° |
| 2026-05-08 05:31 | 18.01215 | -58.98423 | 38036 ft | 469 kts | 232° |
| 2026-05-08 05:31 | 17.97047 | -59.03716 | 38035 ft | 470 kts | 231° |
| 2026-05-08 05:32 | 17.92769 | -59.08875 | 38034 ft | 470 kts | 230° |
| 2026-05-08 05:32 | 17.88452 | -59.14054 | 38038 ft | 471 kts | 230° |
| 2026-05-08 05:33 | 17.84148 | -59.19256 | 38039 ft | 471 kts | 231° |
| 2026-05-08 05:33 | 17.79884 | -59.24427 | 38037 ft | 471 kts | 231° |
| 2026-05-08 05:34 | 17.75591 | -59.29634 | 38037 ft | 471 kts | 231° |
| 2026-05-08 05:34 | 17.71310 | -59.34820 | 38034 ft | 471 kts | 231° |
| 2026-05-08 05:35 | 17.67006 | -59.40030 | 38031 ft | 471 kts | 231° |
| 2026-05-08 05:35 | 17.62732 | -59.45197 | 38031 ft | 471 kts | 231° |
| 2026-05-08 05:36 | 17.58421 | -59.50406 | 38030 ft | 472 kts | 231° |
| 2026-05-08 05:36 | 17.54134 | -59.55583 | 38034 ft | 472 kts | 230° |
| 2026-05-08 05:37 | 17.49813 | -59.60796 | 38034 ft | 472 kts | 230° |
| 2026-05-08 05:37 | 17.45519 | -59.65972 | 38031 ft | 473 kts | 230° |
| 2026-05-08 05:38 | 17.41197 | -59.71177 | 38030 ft | 473 kts | 230° |
| 2026-05-08 05:38 | 17.36900 | -59.76350 | 38027 ft | 473 kts | 230° |
| 2026-05-08 05:39 | 17.32573 | -59.81552 | 38030 ft | 473 kts | 230° |
| 2026-05-08 05:39 | 17.28244 | -59.86755 | 38028 ft | 473 kts | 230° |
| 2026-05-08 05:40 | 17.23938 | -59.91926 | 38028 ft | 473 kts | 230° |
| 2026-05-08 05:40 | 17.19595 | -59.97137 | 38029 ft | 473 kts | 230° |
| 2026-05-08 05:41 | 17.15288 | -60.02301 | 38027 ft | 473 kts | 230° |
| 2026-05-08 05:41 | 17.10952 | -60.07495 | 38028 ft | 473 kts | 230° |
| 2026-05-08 05:42 | 17.06610 | -60.12692 | 38029 ft | 474 kts | 230° |
| 2026-05-08 05:42 | 17.02289 | -60.17860 | 38028 ft | 474 kts | 230° |
| 2026-05-08 05:43 | 16.97934 | -60.23066 | 38029 ft | 475 kts | 230° |
| 2026-05-08 05:43 | 16.93603 | -60.28238 | 38024 ft | 475 kts | 230° |
| 2026-05-08 05:44 | 16.89236 | -60.33450 | 38028 ft | 475 kts | 230° |
| 2026-05-08 05:44 | 16.84899 | -60.38623 | 38027 ft | 475 kts | 230° |
| 2026-05-08 05:45 | 16.80531 | -60.43828 | 38025 ft | 476 kts | 230° |
| 2026-05-08 05:45 | 16.76161 | -60.49030 | 38025 ft | 476 kts | 230° |
| 2026-05-08 05:46 | 16.71788 | -60.54233 | 38027 ft | 476 kts | 230° |
| 2026-05-08 05:46 | 16.67436 | -60.59407 | 38026 ft | 476 kts | 230° |
| 2026-05-08 05:47 | 16.63055 | -60.64615 | 38022 ft | 477 kts | 230° |
| 2026-05-08 05:47 | 16.58695 | -60.69791 | 38017 ft | 477 kts | 230° |
| 2026-05-08 05:48 | 16.54302 | -60.74999 | 38018 ft | 477 kts | 230° |
| 2026-05-08 05:48 | 16.49903 | -60.80212 | 38022 ft | 477 kts | 230° |
| 2026-05-08 05:49 | 16.45531 | -60.85390 | 38021 ft | 477 kts | 230° |
| 2026-05-08 05:49 | 16.41135 | -60.90593 | 38020 ft | 477 kts | 230° |
| 2026-05-08 05:50 | 16.36766 | -60.95759 | 38019 ft | 478 kts | 230° |
| 2026-05-08 05:50 | 16.32357 | -61.00970 | 38020 ft | 478 kts | 230° |
| 2026-05-08 05:51 | 16.27983 | -61.06136 | 38020 ft | 478 kts | 230° |
| 2026-05-08 05:51 | 16.23575 | -61.11337 | 38022 ft | 478 kts | 230° |
| 2026-05-08 05:52 | 16.19159 | -61.16544 | 38022 ft | 479 kts | 230° |
| 2026-05-08 05:52 | 16.14746 | -61.21744 | 38024 ft | 479 kts | 230° |
| 2026-05-08 05:53 | 16.10358 | -61.26910 | 38027 ft | 479 kts | 230° |
| 2026-05-08 05:53 | 16.05933 | -61.32118 | 38030 ft | 479 kts | 230° |
| 2026-05-08 05:54 | 16.01506 | -61.37322 | 38029 ft | 480 kts | 230° |
| 2026-05-08 05:54 | 15.97094 | -61.42506 | 38025 ft | 480 kts | 230° |
| 2026-05-08 05:55 | 15.92691 | -61.47675 | 38021 ft | 480 kts | 230° |
| 2026-05-08 05:55 | 15.88259 | -61.52881 | 38016 ft | 480 kts | 230° |
| 2026-05-08 05:56 | 15.83818 | -61.58083 | 38017 ft | 481 kts | 230° |
| 2026-05-08 05:56 | 15.79374 | -61.63285 | 38014 ft | 481 kts | 230° |
| 2026-05-08 05:57 | 15.74946 | -61.68467 | 38014 ft | 481 kts | 230° |
| 2026-05-08 05:57 | 15.70520 | -61.73643 | 38008 ft | 481 kts | 230° |
| 2026-05-08 05:58 | 15.66067 | -61.78848 | 38006 ft | 482 kts | 230° |
| 2026-05-08 05:58 | 15.61605 | -61.84059 | 38009 ft | 482 kts | 230° |
| 2026-05-08 05:59 | 15.57168 | -61.89238 | 38005 ft | 482 kts | 230° |
| 2026-05-08 05:59 | 15.52690 | -61.94461 | 38006 ft | 482 kts | 230° |
| 2026-05-08 06:00 | 15.48251 | -61.99635 | 38007 ft | 483 kts | 230° |
| 2026-05-08 06:00 | 15.43782 | -62.04839 | 38008 ft | 483 kts | 230° |
| 2026-05-08 06:01 | 15.39330 | -62.10021 | 38008 ft | 483 kts | 230° |
| 2026-05-08 06:01 | 15.34849 | -62.15232 | 38006 ft | 483 kts | 230° |
| 2026-05-08 06:02 | 15.30401 | -62.20401 | 38004 ft | 483 kts | 230° |
| 2026-05-08 06:02 | 15.25914 | -62.25614 | 38007 ft | 483 kts | 230° |
| 2026-05-08 06:03 | 15.21465 | -62.30777 | 38008 ft | 483 kts | 230° |
| 2026-05-08 06:03 | 15.16973 | -62.35987 | 38016 ft | 484 kts | 230° |
| 2026-05-08 06:04 | 15.12482 | -62.41191 | 38004 ft | 484 kts | 230° |
| 2026-05-08 06:04 | 15.08018 | -62.46362 | 38004 ft | 484 kts | 230° |
| 2026-05-08 06:05 | 15.04276 | -62.50694 | 38005 ft | 484 kts | 230° |
| 2026-05-08 06:05 | 14.99773 | -62.55902 | 38010 ft | 484 kts | 230° |
| 2026-05-08 06:06 | 14.95302 | -62.61070 | 38005 ft | 484 kts | 230° |
| 2026-05-08 06:06 | 14.90796 | -62.66277 | 38004 ft | 484 kts | 230° |
| 2026-05-08 06:07 | 14.86286 | -62.71482 | 38000 ft | 485 kts | 230° |
| 2026-05-08 06:07 | 14.81812 | -62.76644 | 38002 ft | 485 kts | 230° |
| 2026-05-08 06:08 | 14.77297 | -62.81849 | 38000 ft | 485 kts | 230° |
| 2026-05-08 06:08 | 14.72783 | -62.87049 | 38002 ft | 486 kts | 230° |
| 2026-05-08 06:09 | 14.68284 | -62.92229 | 38004 ft | 486 kts | 230° |
| 2026-05-08 06:09 | 14.63761 | -62.97433 | 37998 ft | 486 kts | 230° |
| 2026-05-08 06:10 | 14.59239 | -63.02633 | 38004 ft | 486 kts | 230° |
| 2026-05-08 06:10 | 14.54743 | -63.07798 | 38001 ft | 486 kts | 230° |
| 2026-05-08 06:11 | 14.50211 | -63.13001 | 38001 ft | 486 kts | 230° |
| 2026-05-08 06:11 | 14.45683 | -63.18197 | 37995 ft | 486 kts | 230° |
| 2026-05-08 06:12 | 14.41179 | -63.23362 | 37995 ft | 487 kts | 230° |
| 2026-05-08 06:12 | 14.36641 | -63.28563 | 37996 ft | 487 kts | 230° |
| 2026-05-08 06:13 | 14.32102 | -63.33761 | 37995 ft | 487 kts | 230° |
| 2026-05-08 06:13 | 14.27584 | -63.38932 | 37995 ft | 487 kts | 230° |
| 2026-05-08 06:14 | 14.23033 | -63.44137 | 37995 ft | 488 kts | 230° |
| 2026-05-08 06:14 | 14.18487 | -63.49333 | 37997 ft | 488 kts | 230° |
| 2026-05-08 06:15 | 14.13950 | -63.54516 | 37991 ft | 488 kts | 230° |
| 2026-05-08 06:15 | 14.09397 | -63.59713 | 37991 ft | 488 kts | 230° |
| 2026-05-08 06:16 | 14.04856 | -63.64893 | 37993 ft | 488 kts | 230° |
| 2026-05-08 06:16 | 14.00287 | -63.70102 | 37988 ft | 488 kts | 230° |
| 2026-05-08 06:17 | 13.93463 | -63.77875 | 37989 ft | 489 kts | 230° |
| 2026-05-08 06:17 | 13.88919 | -63.83047 | 37991 ft | 489 kts | 230° |
| 2026-05-08 06:18 | 13.84347 | -63.88248 | 37989 ft | 489 kts | 230° |
| 2026-05-08 06:18 | 13.79806 | -63.93411 | 37983 ft | 489 kts | 230° |
| 2026-05-08 06:19 | 13.75231 | -63.98608 | 37985 ft | 489 kts | 230° |
| 2026-05-08 06:19 | 13.70650 | -64.03810 | 37995 ft | 490 kts | 230° |
| 2026-05-08 06:20 | 13.66100 | -64.08972 | 37990 ft | 490 kts | 230° |
| 2026-05-08 06:20 | 13.61515 | -64.14182 | 37994 ft | 490 kts | 231° |
| 2026-05-08 06:21 | 13.57219 | -64.19617 | 37992 ft | 489 kts | 234° |
| 2026-05-08 06:21 | 13.53093 | -64.25136 | 37986 ft | 490 kts | 234° |
| 2026-05-08 06:22 | 13.48894 | -64.30674 | 37991 ft | 490 kts | 233° |
| 2026-05-08 06:22 | 13.44680 | -64.36146 | 37990 ft | 490 kts | 233° |
| 2026-05-08 06:23 | 13.40427 | -64.41636 | 37989 ft | 490 kts | 233° |
| 2026-05-08 06:23 | 13.36194 | -64.47096 | 37992 ft | 491 kts | 233° |
| 2026-05-08 06:24 | 13.31945 | -64.52584 | 37986 ft | 491 kts | 233° |
| 2026-05-08 06:24 | 13.27683 | -64.58086 | 37983 ft | 491 kts | 233° |
| 2026-05-08 06:25 | 13.23423 | -64.63582 | 37987 ft | 491 kts | 233° |
| 2026-05-08 06:25 | 13.19188 | -64.69041 | 37982 ft | 491 kts | 233° |
| 2026-05-08 06:26 | 13.14923 | -64.74535 | 37981 ft | 491 kts | 233° |
| 2026-05-08 06:26 | 13.10673 | -64.80000 | 37981 ft | 492 kts | 233° |
| 2026-05-08 06:27 | 13.06391 | -64.85504 | 37983 ft | 492 kts | 233° |
| 2026-05-08 06:27 | 13.02116 | -64.90997 | 37981 ft | 492 kts | 233° |
| 2026-05-08 06:28 | 12.97861 | -64.96462 | 37980 ft | 492 kts | 233° |
| 2026-05-08 06:28 | 12.93573 | -65.01966 | 37981 ft | 493 kts | 233° |
| 2026-05-08 06:29 | 12.89306 | -65.07439 | 37982 ft | 493 kts | 233° |
| 2026-05-08 06:29 | 12.85037 | -65.12910 | 37980 ft | 493 kts | 233° |
| 2026-05-08 06:30 | 12.80748 | -65.18406 | 37979 ft | 493 kts | 233° |
| 2026-05-08 06:30 | 12.76453 | -65.23904 | 37978 ft | 493 kts | 233° |
| 2026-05-08 06:31 | 12.72186 | -65.29365 | 37980 ft | 494 kts | 233° |
| 2026-05-08 06:31 | 12.67883 | -65.34868 | 37980 ft | 494 kts | 233° |
| 2026-05-08 06:32 | 12.63573 | -65.40376 | 37980 ft | 494 kts | 233° |
| 2026-05-08 06:32 | 12.59296 | -65.45839 | 37976 ft | 494 kts | 233° |
| 2026-05-08 06:33 | 12.54983 | -65.51345 | 37979 ft | 495 kts | 233° |
| 2026-05-08 06:33 | 12.50687 | -65.56825 | 37976 ft | 495 kts | 233° |
| 2026-05-08 06:34 | 12.46366 | -65.62334 | 37978 ft | 495 kts | 233° |
| 2026-05-08 06:34 | 12.42067 | -65.67812 | 37976 ft | 496 kts | 233° |
| 2026-05-08 06:35 | 12.37737 | -65.73326 | 37980 ft | 496 kts | 233° |
| 2026-05-08 06:35 | 12.33433 | -65.78805 | 37980 ft | 496 kts | 233° |
| 2026-05-08 06:36 | 12.29115 | -65.84297 | 37975 ft | 496 kts | 233° |
| 2026-05-08 06:36 | 12.24773 | -65.89817 | 37989 ft | 497 kts | 233° |
| 2026-05-08 06:37 | 12.20440 | -65.95322 | 37985 ft | 497 kts | 233° |
| 2026-05-08 06:37 | 12.16122 | -66.00806 | 37983 ft | 497 kts | 233° |
| 2026-05-08 06:38 | 12.11775 | -66.06322 | 37975 ft | 498 kts | 233° |
| 2026-05-08 06:38 | 12.07419 | -66.11847 | 37970 ft | 498 kts | 233° |
| 2026-05-08 06:39 | 12.03093 | -66.17330 | 37973 ft | 499 kts | 234° |
| 2026-05-08 06:39 | 11.98723 | -66.22866 | 37971 ft | 499 kts | 234° |
| 2026-05-08 06:40 | 11.94357 | -66.28395 | 37977 ft | 500 kts | 234° |
| 2026-05-08 06:40 | 11.89987 | -66.33925 | 37977 ft | 500 kts | 234° |
| 2026-05-08 06:41 | 11.85634 | -66.39429 | 37975 ft | 501 kts | 234° |
| 2026-05-08 06:41 | 11.81250 | -66.44972 | 37976 ft | 501 kts | 234° |
| 2026-05-08 06:42 | 11.76854 | -66.50525 | 37974 ft | 502 kts | 234° |
| 2026-05-08 06:42 | 11.72486 | -66.56041 | 37973 ft | 502 kts | 234° |
| 2026-05-08 06:43 | 11.68092 | -66.61586 | 37971 ft | 502 kts | 234° |
| 2026-05-08 06:43 | 11.63693 | -66.67143 | 37970 ft | 502 kts | 234° |
| 2026-05-08 06:44 | 11.59317 | -66.72666 | 37972 ft | 503 kts | 234° |
| 2026-05-08 06:44 | 11.54910 | -66.78225 | 37969 ft | 503 kts | 234° |
| 2026-05-08 06:45 | 11.50523 | -66.83744 | 37972 ft | 503 kts | 234° |
| 2026-05-08 06:45 | 11.46101 | -66.89301 | 37965 ft | 503 kts | 234° |
| 2026-05-08 06:46 | 11.41682 | -66.94862 | 37964 ft | 503 kts | 234° |
| 2026-05-08 06:46 | 11.37285 | -67.00394 | 37966 ft | 504 kts | 234° |
| 2026-05-08 06:47 | 11.32887 | -67.05921 | 37966 ft | 504 kts | 234° |
| 2026-05-08 06:47 | 11.28463 | -67.11481 | 37962 ft | 505 kts | 234° |
| 2026-05-08 06:48 | 11.24056 | -67.17016 | 37965 ft | 505 kts | 234° |
| 2026-05-08 06:48 | 11.19621 | -67.22589 | 37961 ft | 505 kts | 234° |
| 2026-05-08 06:49 | 11.15208 | -67.28117 | 37965 ft | 505 kts | 234° |
| 2026-05-08 06:49 | 11.10767 | -67.33671 | 37957 ft | 505 kts | 234° |
| 2026-05-08 06:50 | 11.06326 | -67.39225 | 37960 ft | 505 kts | 234° |
| 2026-05-08 06:50 | 11.01911 | -67.44748 | 37958 ft | 505 kts | 234° |
| 2026-05-08 06:51 | 10.97463 | -67.50298 | 37960 ft | 506 kts | 233° |
| 2026-05-08 06:51 | 10.92891 | -67.55757 | 37955 ft | 506 kts | 232° |
| 2026-05-08 06:52 | 10.88294 | -67.61157 | 37953 ft | 507 kts | 232° |
| 2026-05-08 06:52 | 10.83680 | -67.66613 | 37955 ft | 507 kts | 232° |
| 2026-05-08 06:53 | 10.79107 | -67.72037 | 37957 ft | 507 kts | 232° |
| 2026-05-08 06:53 | 10.74506 | -67.77495 | 37960 ft | 507 kts | 232° |
| 2026-05-08 06:54 | 10.70683 | -67.82030 | 37958 ft | 507 kts | 232° |
| 2026-05-08 06:54 | 10.66108 | -67.87455 | 37963 ft | 507 kts | 232° |
| 2026-05-08 06:55 | 10.60696 | -67.93774 | 37969 ft | 508 kts | 231° |
| 2026-05-08 06:55 | 10.56767 | -67.98247 | 37964 ft | 508 kts | 231° |
| 2026-05-08 06:56 | 10.52049 | -68.03620 | 37971 ft | 508 kts | 231° |
| 2026-05-08 06:56 | 10.47384 | -68.08959 | 37976 ft | 508 kts | 231° |
| 2026-05-08 06:57 | 10.42700 | -68.14363 | 37983 ft | 508 kts | 231° |
| 2026-05-08 06:57 | 10.38056 | -68.19725 | 37985 ft | 508 kts | 231° |
| 2026-05-08 06:58 | 10.33375 | -68.25125 | 37986 ft | 507 kts | 231° |
| 2026-05-08 06:58 | 10.28731 | -68.30476 | 37992 ft | 507 kts | 231° |
| 2026-05-08 06:59 | 10.24062 | -68.35852 | 37993 ft | 507 kts | 231° |
| 2026-05-08 06:59 | 10.19389 | -68.41231 | 37998 ft | 506 kts | 231° |
| 2026-05-08 07:00 | 10.14743 | -68.46577 | 38000 ft | 507 kts | 231° |
| 2026-05-08 07:00 | 10.10072 | -68.51949 | 37997 ft | 506 kts | 231° |
| 2026-05-08 07:01 | 10.05435 | -68.57279 | 37991 ft | 505 kts | 231° |
| 2026-05-08 07:01 | 10.00777 | -68.62638 | 37992 ft | 505 kts | 231° |
| 2026-05-08 07:02 | 9.96134 | -68.67989 | 37987 ft | 505 kts | 231° |
| 2026-05-08 07:02 | 9.91489 | -68.73336 | 37982 ft | 505 kts | 231° |
| 2026-05-08 07:03 | 9.86876 | -68.78647 | 37970 ft | 504 kts | 231° |
| 2026-05-08 07:03 | 9.82230 | -68.83993 | 37962 ft | 504 kts | 231° |
| 2026-05-08 07:04 | 9.77622 | -68.89293 | 37958 ft | 503 kts | 231° |
| 2026-05-08 07:04 | 9.72983 | -68.94627 | 37958 ft | 504 kts | 231° |
| 2026-05-08 07:05 | 9.68366 | -68.99934 | 37954 ft | 504 kts | 231° |
| 2026-05-08 07:05 | 9.63715 | -69.05277 | 37952 ft | 504 kts | 231° |
| 2026-05-08 07:06 | 9.59081 | -69.10606 | 37947 ft | 505 kts | 231° |
| 2026-05-08 07:06 | 9.54454 | -69.15922 | 37948 ft | 505 kts | 231° |
| 2026-05-08 07:07 | 9.49804 | -69.21260 | 37949 ft | 505 kts | 231° |
| 2026-05-08 07:07 | 9.45147 | -69.26607 | 37948 ft | 505 kts | 231° |
| 2026-05-08 07:08 | 9.40478 | -69.31964 | 37947 ft | 506 kts | 231° |
| 2026-05-08 07:08 | 9.35840 | -69.37284 | 37948 ft | 506 kts | 231° |
| 2026-05-08 07:09 | 9.31176 | -69.42631 | 37947 ft | 506 kts | 230° |
| 2026-05-08 07:09 | 9.26496 | -69.47995 | 37947 ft | 507 kts | 230° |
| 2026-05-08 07:10 | 9.21841 | -69.53327 | 37946 ft | 507 kts | 230° |
| 2026-05-08 07:10 | 9.17157 | -69.58689 | 37944 ft | 508 kts | 230° |
| 2026-05-08 07:11 | 9.12503 | -69.64016 | 37942 ft | 508 kts | 230° |
| 2026-05-08 07:11 | 9.07819 | -69.69376 | 37933 ft | 508 kts | 230° |
| 2026-05-08 07:12 | 9.03115 | -69.74755 | 37943 ft | 508 kts | 230° |
| 2026-05-08 07:12 | 8.98452 | -69.80085 | 37940 ft | 509 kts | 230° |
| 2026-05-08 07:13 | 8.93746 | -69.85461 | 37939 ft | 509 kts | 230° |
| 2026-05-08 07:13 | 8.89061 | -69.90811 | 37934 ft | 509 kts | 230° |
| 2026-05-08 07:14 | 8.84356 | -69.96184 | 37936 ft | 509 kts | 230° |
| 2026-05-08 07:14 | 8.79681 | -70.01518 | 37937 ft | 510 kts | 230° |
| 2026-05-08 07:15 | 8.74971 | -70.06890 | 37937 ft | 510 kts | 230° |
| 2026-05-08 07:15 | 8.70250 | -70.12273 | 37936 ft | 510 kts | 230° |
| 2026-05-08 07:16 | 8.65569 | -70.17608 | 37937 ft | 510 kts | 230° |
| 2026-05-08 07:16 | 8.60856 | -70.22976 | 37934 ft | 510 kts | 230° |
| 2026-05-08 07:17 | 8.56064 | -70.28279 | 37941 ft | 510 kts | 229° |
| 2026-05-08 07:17 | 8.51261 | -70.33505 | 37939 ft | 510 kts | 229° |
| 2026-05-08 07:18 | 8.46427 | -70.38780 | 37940 ft | 509 kts | 229° |
| 2026-05-08 07:18 | 8.41648 | -70.44014 | 37938 ft | 509 kts | 229° |
| 2026-05-08 07:19 | 8.36836 | -70.49292 | 37941 ft | 509 kts | 229° |
| 2026-05-08 07:19 | 8.32031 | -70.54557 | 37942 ft | 509 kts | 229° |
| 2026-05-08 07:20 | 8.27252 | -70.59791 | 37945 ft | 509 kts | 229° |
| 2026-05-08 07:20 | 8.22438 | -70.65062 | 37942 ft | 508 kts | 229° |
| 2026-05-08 07:21 | 8.17673 | -70.70276 | 37941 ft | 508 kts | 229° |
| 2026-05-08 07:21 | 8.12876 | -70.75524 | 37964 ft | 508 kts | 229° |
| 2026-05-08 07:22 | 8.08076 | -70.80773 | 37960 ft | 507 kts | 229° |
| 2026-05-08 07:22 | 8.03312 | -70.85981 | 37954 ft | 507 kts | 229° |
| 2026-05-08 07:23 | 7.98521 | -70.91216 | 37953 ft | 506 kts | 229° |
| 2026-05-08 07:23 | 7.93761 | -70.96416 | 37947 ft | 506 kts | 229° |
| 2026-05-08 07:24 | 7.88974 | -71.01644 | 37941 ft | 505 kts | 229° |
| 2026-05-08 07:24 | 7.84226 | -71.06826 | 37951 ft | 505 kts | 229° |
| 2026-05-08 07:25 | 7.79447 | -71.12040 | 37943 ft | 504 kts | 229° |
| 2026-05-08 07:26 | 7.72326 | -71.19807 | 37956 ft | 503 kts | 229° |
| 2026-05-08 07:26 | 7.67567 | -71.24996 | 37947 ft | 502 kts | 229° |
| 2026-05-08 07:27 | 7.62844 | -71.30143 | 37953 ft | 502 kts | 228° |
| 2026-05-08 07:27 | 7.58100 | -71.35310 | 37947 ft | 501 kts | 229° |
| 2026-05-08 07:28 | 7.53373 | -71.40459 | 37932 ft | 501 kts | 229° |
| 2026-05-08 07:28 | 7.48630 | -71.45622 | 37947 ft | 501 kts | 229° |
| 2026-05-08 07:29 | 7.43892 | -71.50779 | 37946 ft | 500 kts | 229° |
| 2026-05-08 07:29 | 7.39189 | -71.55894 | 37928 ft | 499 kts | 229° |
| 2026-05-08 07:30 | 7.34464 | -71.61033 | 37941 ft | 498 kts | 229° |
| 2026-05-08 07:30 | 7.29778 | -71.66128 | 37939 ft | 498 kts | 228° |
| 2026-05-08 07:31 | 7.25077 | -71.71237 | 37940 ft | 497 kts | 229° |
| 2026-05-08 07:31 | 7.20374 | -71.76347 | 37932 ft | 497 kts | 229° |
| 2026-05-08 07:32 | 7.15669 | -71.81457 | 37935 ft | 497 kts | 228° |
| 2026-05-08 07:32 | 7.10994 | -71.86534 | 37925 ft | 497 kts | 228° |
| 2026-05-08 07:33 | 7.06284 | -71.91646 | 37924 ft | 497 kts | 228° |
| 2026-05-08 07:33 | 7.01574 | -71.96757 | 37920 ft | 497 kts | 228° |
| 2026-05-08 07:34 | 6.96694 | -72.01700 | 37936 ft | 498 kts | 224° |
| 2026-05-08 07:34 | 6.91653 | -72.06439 | 37951 ft | 498 kts | 224° |
| 2026-05-08 07:35 | 6.86582 | -72.11235 | 38001 ft | 498 kts | 224° |
| 2026-05-08 07:35 | 6.81583 | -72.16031 | 38054 ft | 498 kts | 225° |
| 2026-05-08 07:36 | 6.76573 | -72.20865 | 38099 ft | 498 kts | 225° |
| 2026-05-08 07:36 | 6.71593 | -72.25670 | 38123 ft | 498 kts | 225° |
| 2026-05-08 07:37 | 6.66577 | -72.30506 | 38130 ft | 498 kts | 225° |
| 2026-05-08 07:37 | 6.61562 | -72.35338 | 38121 ft | 498 kts | 225° |
| 2026-05-08 07:38 | 6.56580 | -72.40136 | 38134 ft | 498 kts | 225° |
| 2026-05-08 07:38 | 6.51566 | -72.44963 | 38134 ft | 498 kts | 225° |
| 2026-05-08 07:39 | 6.46584 | -72.49760 | 38125 ft | 498 kts | 225° |
| 2026-05-08 07:39 | 6.41568 | -72.54586 | 38120 ft | 498 kts | 225° |
| 2026-05-08 07:40 | 6.36549 | -72.59415 | 38109 ft | 498 kts | 225° |
| 2026-05-08 07:40 | 6.31563 | -72.64211 | 38112 ft | 499 kts | 225° |
| 2026-05-08 07:41 | 6.26536 | -72.69043 | 38113 ft | 499 kts | 225° |
| 2026-05-08 07:41 | 6.21542 | -72.73844 | 38114 ft | 499 kts | 225° |
| 2026-05-08 07:42 | 6.16514 | -72.78674 | 38117 ft | 499 kts | 225° |
| 2026-05-08 07:42 | 6.11515 | -72.83479 | 38116 ft | 499 kts | 225° |
| 2026-05-08 07:43 | 6.06489 | -72.88306 | 38121 ft | 499 kts | 225° |
| 2026-05-08 07:43 | 6.01465 | -72.93130 | 38119 ft | 498 kts | 225° |
| 2026-05-08 07:44 | 5.96469 | -72.97925 | 38125 ft | 498 kts | 225° |
| 2026-05-08 07:44 | 5.91440 | -73.02752 | 38131 ft | 498 kts | 225° |
| 2026-05-08 07:45 | 5.86448 | -73.07540 | 38131 ft | 498 kts | 225° |
| 2026-05-08 07:45 | 5.82269 | -73.11549 | 38132 ft | 498 kts | 225° |
| 2026-05-08 07:46 | 5.77275 | -73.16337 | 38135 ft | 497 kts | 225° |
| 2026-05-08 07:46 | 5.72257 | -73.21149 | 38137 ft | 497 kts | 225° |
| 2026-05-08 07:47 | 5.67281 | -73.25919 | 38139 ft | 497 kts | 225° |
| 2026-05-08 07:47 | 5.62271 | -73.30720 | 38142 ft | 497 kts | 225° |
| 2026-05-08 07:48 | 5.57254 | -73.35525 | 38142 ft | 497 kts | 225° |
| 2026-05-08 07:48 | 5.52278 | -73.40291 | 38141 ft | 497 kts | 225° |
| 2026-05-08 07:49 | 5.47291 | -73.45067 | 38144 ft | 496 kts | 225° |
| 2026-05-08 07:49 | 5.42286 | -73.49859 | 38142 ft | 496 kts | 225° |
| 2026-05-08 07:50 | 5.37295 | -73.54636 | 38146 ft | 495 kts | 225° |
| 2026-05-08 07:50 | 5.32292 | -73.59422 | 38137 ft | 495 kts | 225° |
| 2026-05-08 07:51 | 5.27334 | -73.64165 | 38144 ft | 495 kts | 225° |
| 2026-05-08 07:51 | 5.22344 | -73.68937 | 38141 ft | 495 kts | 225° |
| 2026-05-08 07:52 | 5.17346 | -73.73715 | 38148 ft | 495 kts | 225° |
| 2026-05-08 07:52 | 5.12371 | -73.78470 | 38140 ft | 495 kts | 225° |
| 2026-05-08 07:53 | 5.07368 | -73.83253 | 38144 ft | 496 kts | 225° |
| 2026-05-08 07:53 | 5.02393 | -73.88006 | 38207 ft | 496 kts | 225° |
| 2026-05-08 07:54 | 4.97389 | -73.92787 | 38269 ft | 496 kts | 225° |
| 2026-05-08 07:54 | 4.92383 | -73.97567 | 38326 ft | 497 kts | 225° |
| 2026-05-08 07:55 | 4.87404 | -74.02322 | 38362 ft | 497 kts | 225° |
| 2026-05-08 07:55 | 4.82385 | -74.07114 | 38369 ft | 498 kts | 225° |
| 2026-05-08 07:56 | 4.77350 | -74.11920 | 38368 ft | 498 kts | 225° |
| 2026-05-08 07:56 | 4.72361 | -74.16681 | 38366 ft | 499 kts | 225° |
| 2026-05-08 07:57 | 4.67328 | -74.21484 | 38376 ft | 499 kts | 225° |
| 2026-05-08 07:57 | 4.62281 | -74.26298 | 38319 ft | 499 kts | 225° |
| 2026-05-08 07:58 | 4.57267 | -74.31079 | 38236 ft | 500 kts | 225° |
| 2026-05-08 07:58 | 4.52231 | -74.35880 | 38140 ft | 500 kts | 225° |
| 2026-05-08 07:59 | 4.47189 | -74.40688 | 38038 ft | 499 kts | 225° |
| 2026-05-08 07:59 | 4.42174 | -74.45466 | 38006 ft | 499 kts | 225° |
| 2026-05-08 08:00 | 4.37130 | -74.50273 | 37985 ft | 500 kts | 225° |
| 2026-05-08 08:00 | 4.32107 | -74.55059 | 37968 ft | 500 kts | 225° |
| 2026-05-08 08:01 | 4.27056 | -74.59871 | 37952 ft | 500 kts | 225° |
| 2026-05-08 08:01 | 4.22006 | -74.64680 | 37929 ft | 500 kts | 225° |
| 2026-05-08 08:02 | 4.16981 | -74.69465 | 37926 ft | 501 kts | 225° |
| 2026-05-08 08:02 | 4.11921 | -74.74283 | 37909 ft | 501 kts | 225° |
| 2026-05-08 08:03 | 4.06877 | -74.79084 | 37904 ft | 502 kts | 225° |
| 2026-05-08 08:03 | 4.01805 | -74.83911 | 37903 ft | 502 kts | 225° |
| 2026-05-08 08:04 | 3.96764 | -74.88707 | 37893 ft | 502 kts | 225° |
| 2026-05-08 08:04 | 3.91696 | -74.93528 | 37891 ft | 502 kts | 225° |
| 2026-05-08 08:05 | 3.86625 | -74.98351 | 37892 ft | 502 kts | 225° |
| 2026-05-08 08:05 | 3.81579 | -75.03151 | 37893 ft | 502 kts | 225° |
| 2026-05-08 08:06 | 3.76499 | -75.07981 | 37893 ft | 502 kts | 225° |
| 2026-05-08 08:06 | 3.71457 | -75.12775 | 37895 ft | 502 kts | 225° |
| 2026-05-08 08:07 | 3.66381 | -75.17600 | 37898 ft | 502 kts | 225° |
| 2026-05-08 08:07 | 3.61316 | -75.22413 | 37900 ft | 502 kts | 225° |
| 2026-05-08 08:08 | 3.56235 | -75.27241 | 37915 ft | 503 kts | 225° |
| 2026-05-08 08:08 | 3.51180 | -75.32044 | 37914 ft | 503 kts | 225° |
| 2026-05-08 08:09 | 3.46092 | -75.36878 | 37923 ft | 503 kts | 225° |
| 2026-05-08 08:09 | 3.41033 | -75.41683 | 37937 ft | 504 kts | 225° |
| 2026-05-08 08:10 | 3.35925 | -75.46534 | 37950 ft | 505 kts | 225° |
| 2026-05-08 08:10 | 3.30856 | -75.51346 | 37954 ft | 505 kts | 225° |
| 2026-05-08 08:11 | 3.25752 | -75.56191 | 37976 ft | 505 kts | 225° |
| 2026-05-08 08:11 | 3.20638 | -75.61047 | 37995 ft | 505 kts | 225° |
| 2026-05-08 08:12 | 3.15561 | -75.65865 | 38010 ft | 505 kts | 225° |
| 2026-05-08 08:12 | 3.10455 | -75.70710 | 38029 ft | 505 kts | 225° |
| 2026-05-08 08:13 | 3.05338 | -75.75564 | 38033 ft | 505 kts | 224° |
| 2026-05-08 08:13 | 3.00256 | -75.80385 | 38046 ft | 505 kts | 224° |
| 2026-05-08 08:14 | 2.95148 | -75.85230 | 38046 ft | 505 kts | 224° |
| 2026-05-08 08:14 | 2.90068 | -75.90048 | 38059 ft | 505 kts | 224° |
| 2026-05-08 08:15 | 2.84963 | -75.94889 | 38058 ft | 505 kts | 224° |
| 2026-05-08 08:15 | 2.79879 | -75.99710 | 38064 ft | 505 kts | 224° |
| 2026-05-08 08:16 | 2.74765 | -76.04559 | 38061 ft | 505 kts | 224° |
| 2026-05-08 08:16 | 2.69659 | -76.09399 | 38060 ft | 505 kts | 224° |
| 2026-05-08 08:17 | 2.64593 | -76.14200 | 38063 ft | 504 kts | 225° |
| 2026-05-08 08:17 | 2.59492 | -76.19034 | 38063 ft | 504 kts | 225° |
| 2026-05-08 08:18 | 2.54383 | -76.23874 | 38064 ft | 504 kts | 225° |
| 2026-05-08 08:18 | 2.49314 | -76.28678 | 38072 ft | 504 kts | 225° |
| 2026-05-08 08:19 | 2.44223 | -76.33502 | 38088 ft | 504 kts | 225° |
| 2026-05-08 08:19 | 2.39156 | -76.38302 | 38105 ft | 504 kts | 225° |
| 2026-05-08 08:20 | 2.34050 | -76.43138 | 38109 ft | 504 kts | 225° |
| 2026-05-08 08:20 | 2.28983 | -76.47937 | 38109 ft | 504 kts | 225° |
| 2026-05-08 08:21 | 2.23889 | -76.52762 | 38106 ft | 504 kts | 225° |
| 2026-05-08 08:21 | 2.18799 | -76.57581 | 38089 ft | 504 kts | 225° |
| 2026-05-08 08:22 | 2.13700 | -76.62409 | 38068 ft | 503 kts | 225° |
| 2026-05-08 08:22 | 2.08632 | -76.67205 | 38039 ft | 503 kts | 225° |
| 2026-05-08 08:23 | 2.03570 | -76.71997 | 38039 ft | 503 kts | 225° |
| 2026-05-08 08:23 | 1.98476 | -76.76818 | 38027 ft | 503 kts | 225° |
| 2026-05-08 08:24 | 1.93389 | -76.81634 | 38027 ft | 503 kts | 225° |
| 2026-05-08 08:24 | 1.88328 | -76.86423 | 38019 ft | 503 kts | 225° |
| 2026-05-08 08:25 | 1.83234 | -76.91242 | 38022 ft | 503 kts | 225° |
| 2026-05-08 08:25 | 1.78139 | -76.96063 | 38023 ft | 503 kts | 225° |
| 2026-05-08 08:26 | 1.73081 | -77.00850 | 38035 ft | 503 kts | 225° |
| 2026-05-08 08:26 | 1.67988 | -77.05668 | 38042 ft | 503 kts | 225° |
| 2026-05-08 08:27 | 1.62898 | -77.10485 | 38079 ft | 503 kts | 225° |
| 2026-05-08 08:27 | 1.57847 | -77.15262 | 38118 ft | 503 kts | 224° |
| 2026-05-08 08:28 | 1.52754 | -77.20079 | 38153 ft | 503 kts | 224° |
| 2026-05-08 08:28 | 1.47659 | -77.24896 | 38182 ft | 503 kts | 224° |
| 2026-05-08 08:29 | 1.42564 | -77.29715 | 38180 ft | 503 kts | 224° |
| 2026-05-08 08:29 | 1.37502 | -77.34503 | 38180 ft | 503 kts | 224° |
| 2026-05-08 08:30 | 1.32412 | -77.39317 | 38176 ft | 503 kts | 224° |
| 2026-05-08 08:30 | 1.24789 | -77.46523 | 38156 ft | 496 kts | 224° |
| 2026-05-08 08:31 | 1.19838 | -77.51203 | 38154 ft | 490 kts | 224° |
| 2026-05-08 08:31 | 1.14881 | -77.55890 | 38203 ft | 490 kts | 224° |
| 2026-05-08 08:32 | 1.09916 | -77.60584 | 38267 ft | 491 kts | 224° |
| 2026-05-08 08:32 | 1.04970 | -77.65260 | 38318 ft | 492 kts | 224° |
| 2026-05-08 08:33 | 0.99983 | -77.69975 | 38360 ft | 493 kts | 224° |
| 2026-05-08 08:33 | 0.94997 | -77.74687 | 38374 ft | 494 kts | 224° |
| 2026-05-08 08:34 | 0.90838 | -77.78619 | 38373 ft | 495 kts | 224° |
| 2026-05-08 08:34 | 0.85004 | -77.84132 | 38204 ft | 495 kts | 225° |
| 2026-05-08 08:35 | 0.83343 | -77.85701 | 38038 ft | 495 kts | 225° |
| 2026-05-08 08:35 | 0.80773 | -77.88007 | 37752 ft | 497 kts | 219° |
| 2026-05-08 08:35 | 0.78051 | -77.90134 | 37483 ft | 497 kts | 218° |
| 2026-05-08 08:35 | 0.75288 | -77.92229 | 37220 ft | 497 kts | 218° |
| 2026-05-08 08:36 | 0.72544 | -77.94279 | 36950 ft | 496 kts | 218° |
| 2026-05-08 08:36 | 0.69771 | -77.96336 | 36676 ft | 496 kts | 218° |
| 2026-05-08 08:36 | 0.66998 | -77.98390 | 36432 ft | 496 kts | 217° |
| 2026-05-08 08:36 | 0.64231 | -78.00442 | 36202 ft | 496 kts | 217° |
| 2026-05-08 08:37 | 0.61445 | -78.02510 | 35962 ft | 496 kts | 218° |
| 2026-05-08 08:37 | 0.58678 | -78.04568 | 35730 ft | 496 kts | 218° |
| 2026-05-08 08:37 | 0.55905 | -78.06631 | 35500 ft | 496 kts | 218° |
| 2026-05-08 08:37 | 0.53171 | -78.08667 | 35273 ft | 496 kts | 217° |
| 2026-05-08 08:38 | 0.50407 | -78.10725 | 35049 ft | 496 kts | 217° |
| 2026-05-08 08:38 | 0.47636 | -78.12790 | 34821 ft | 496 kts | 217° |
| 2026-05-08 08:38 | 0.44857 | -78.14858 | 34600 ft | 496 kts | 217° |
| 2026-05-08 08:38 | 0.42117 | -78.16898 | 34381 ft | 496 kts | 217° |
| 2026-05-08 08:39 | 0.39346 | -78.18961 | 34145 ft | 496 kts | 217° |
| 2026-05-08 08:39 | 0.36571 | -78.21028 | 33892 ft | 497 kts | 217° |
| 2026-05-08 08:39 | 0.33780 | -78.23106 | 33637 ft | 497 kts | 217° |
| 2026-05-08 08:39 | 0.31003 | -78.25174 | 33395 ft | 498 kts | 217° |
| 2026-05-08 08:40 | 0.28258 | -78.27217 | 33163 ft | 498 kts | 217° |
| 2026-05-08 08:40 | 0.25579 | -78.29212 | 32916 ft | 498 kts | 217° |
| 2026-05-08 08:40 | 0.22789 | -78.31289 | 32677 ft | 499 kts | 217° |
| 2026-05-08 08:40 | 0.20000 | -78.33366 | 32445 ft | 500 kts | 217° |
| 2026-05-08 08:41 | 0.17207 | -78.35445 | 32218 ft | 500 kts | 216° |
| 2026-05-08 08:41 | 0.14416 | -78.37522 | 31982 ft | 501 kts | 216° |
| 2026-05-08 08:41 | 0.11623 | -78.39602 | 31759 ft | 500 kts | 216° |
| 2026-05-08 08:41 | 0.08828 | -78.41683 | 31538 ft | 499 kts | 216° |
| 2026-05-08 08:42 | 0.06051 | -78.43750 | 31305 ft | 497 kts | 216° |
| 2026-05-08 08:42 | 0.03316 | -78.45787 | 31073 ft | 495 kts | 216° |
| 2026-05-08 08:42 | 0.00554 | -78.47843 | 30850 ft | 494 kts | 216° |
| 2026-05-08 08:42 | -0.02195 | -78.49890 | 30630 ft | 492 kts | 216° |
| 2026-05-08 08:43 | -0.05099 | -78.51656 | 30514 ft | 489 kts | 202° |
| 2026-05-08 08:43 | -0.08353 | -78.52588 | 30392 ft | 486 kts | 187° |
| 2026-05-08 08:43 | -0.11725 | -78.52626 | 30265 ft | 485 kts | 172° |
| 2026-05-08 08:43 | -0.14978 | -78.51770 | 30127 ft | 484 kts | 158° |
| 2026-05-08 08:44 | -0.17892 | -78.50080 | 29996 ft | 485 kts | 142° |
| 2026-05-08 08:44 | -0.20258 | -78.47674 | 29868 ft | 487 kts | 127° |
| 2026-05-08 08:44 | -0.21897 | -78.44755 | 29728 ft | 489 kts | 112° |
| 2026-05-08 08:44 | -0.22732 | -78.41445 | 29607 ft | 492 kts | 97° |
| 2026-05-08 08:45 | -0.22772 | -78.38016 | 29481 ft | 493 kts | 89° |
| 2026-05-08 08:45 | -0.22545 | -78.34579 | 29348 ft | 494 kts | 86° |
| 2026-05-08 08:45 | -0.22140 | -78.31215 | 29218 ft | 494 kts | 82° |
| 2026-05-08 08:45 | -0.21361 | -78.27862 | 29093 ft | 495 kts | 74° |
| 2026-05-08 08:46 | -0.20079 | -78.24669 | 28963 ft | 495 kts | 64° |
| 2026-05-08 08:46 | -0.18251 | -78.21749 | 28832 ft | 496 kts | 53° |
| 2026-05-08 08:46 | -0.15905 | -78.19206 | 28711 ft | 497 kts | 43° |
| 2026-05-08 08:46 | -0.13137 | -78.17151 | 28571 ft | 497 kts | 32° |
| 2026-05-08 08:47 | -0.10058 | -78.15664 | 28462 ft | 497 kts | 20° |
| 2026-05-08 08:47 | -0.06722 | -78.14780 | 28332 ft | 496 kts | 9° |
| 2026-05-08 08:47 | -0.03279 | -78.14542 | 28206 ft | 496 kts | 358° |
| 2026-05-08 08:47 | 0.00154 | -78.14924 | 28094 ft | 495 kts | 350° |
| 2026-05-08 08:48 | 0.03493 | -78.15581 | 27958 ft | 494 kts | 348° |
| 2026-05-08 08:48 | 0.06865 | -78.16271 | 27832 ft | 493 kts | 348° |
| 2026-05-08 08:48 | 0.10224 | -78.16945 | 27708 ft | 492 kts | 349° |
| 2026-05-08 08:48 | 0.13575 | -78.17630 | 27574 ft | 491 kts | 347° |
| 2026-05-08 08:49 | 0.16844 | -78.18611 | 27468 ft | 490 kts | 338° |
| 2026-05-08 08:49 | 0.19957 | -78.19998 | 27451 ft | 489 kts | 333° |
| 2026-05-08 08:49 | 0.22838 | -78.21741 | 27445 ft | 489 kts | 324° |
| 2026-05-08 08:49 | 0.25405 | -78.23974 | 27434 ft | 489 kts | 313° |
| 2026-05-08 08:50 | 0.27466 | -78.26657 | 27430 ft | 488 kts | 300° |
| 2026-05-08 08:50 | 0.28925 | -78.29707 | 27424 ft | 486 kts | 288° |
| 2026-05-08 08:50 | 0.29664 | -78.32996 | 27415 ft | 484 kts | 274° |
| 2026-05-08 08:50 | 0.29520 | -78.36329 | 27405 ft | 471 kts | 258° |
| 2026-05-08 08:51 | 0.28537 | -78.39383 | 27203 ft | 456 kts | 243° |
| 2026-05-08 08:51 | 0.26866 | -78.42010 | 26415 ft | 456 kts | 228° |
| 2026-05-08 08:51 | 0.24479 | -78.44107 | 25665 ft | 457 kts | 210° |
| 2026-05-08 08:51 | 0.21625 | -78.45363 | 25525 ft | 441 kts | 195° |
| 2026-05-08 08:52 | 0.18654 | -78.46083 | 24848 ft | 441 kts | 190° |
| 2026-05-08 08:52 | 0.15615 | -78.46713 | 24057 ft | 448 kts | 190° |
| 2026-05-08 08:52 | 0.12565 | -78.47365 | 23420 ft | 447 kts | 191° |
| 2026-05-08 08:52 | 0.09525 | -78.48038 | 22772 ft | 445 kts | 191° |
| 2026-05-08 08:53 | 0.06535 | -78.48718 | 22085 ft | 445 kts | 191° |
| 2026-05-08 08:53 | 0.03523 | -78.49414 | 21502 ft | 441 kts | 192° |
| 2026-05-08 08:53 | 0.00534 | -78.50108 | 20917 ft | 437 kts | 192° |
| 2026-05-08 08:53 | -0.02434 | -78.50772 | 20335 ft | 433 kts | 189° |
| 2026-05-08 08:54 | -0.05381 | -78.50970 | 19730 ft | 428 kts | 175° |
| 2026-05-08 08:54 | -0.08336 | -78.50714 | 19146 ft | 425 kts | 172° |
| 2026-05-08 08:54 | -0.11277 | -78.50390 | 18647 ft | 420 kts | 172° |
| 2026-05-08 08:54 | -0.14164 | -78.50073 | 18180 ft | 415 kts | 172° |
| 2026-05-08 08:55 | -0.17019 | -78.49806 | 17707 ft | 411 kts | 174° |
| 2026-05-08 08:55 | -0.19876 | -78.49585 | 17152 ft | 409 kts | 174° |
| 2026-05-08 08:55 | -0.22679 | -78.49371 | 16888 ft | 397 kts | 174° |
| 2026-05-08 08:55 | -0.25366 | -78.49164 | 16644 ft | 385 kts | 174° |
| 2026-05-08 08:56 | -0.28002 | -78.48958 | 16419 ft | 374 kts | 174° |
| 2026-05-08 08:56 | -0.30562 | -78.48757 | 16209 ft | 363 kts | 174° |
| 2026-05-08 08:56 | -0.33033 | -78.48562 | 15955 ft | 345 kts | 174° |
| 2026-05-08 08:56 | -0.35357 | -78.48341 | 15567 ft | 324 kts | 169° |
| 2026-05-08 08:57 | -0.37361 | -78.47569 | 15216 ft | 304 kts | 150° |
| 2026-05-08 08:57 | -0.39088 | -78.46461 | 14915 ft | 286 kts | 142° |
| 2026-05-08 08:57 | -0.40563 | -78.45207 | 14644 ft | 269 kts | 135° |
| 2026-05-08 08:57 | -0.41525 | -78.43678 | 14363 ft | 257 kts | 104° |
| 2026-05-08 08:58 | -0.41503 | -78.41963 | 14152 ft | 243 kts | 76° |
| 2026-05-08 08:58 | -0.40933 | -78.40416 | 14002 ft | 233 kts | 62° |
| 2026-05-08 08:58 | -0.39901 | -78.39186 | 13677 ft | 232 kts | 39° |
| 2026-05-08 08:58 | -0.38519 | -78.38398 | 13382 ft | 231 kts | 26° |
| 2026-05-08 08:59 | -0.37047 | -78.37747 | 13051 ft | 230 kts | 25° |
| 2026-05-08 08:59 | -0.35579 | -78.37104 | 12708 ft | 229 kts | 25° |
| 2026-05-08 08:59 | -0.34122 | -78.36457 | 12375 ft | 228 kts | 25° |
| 2026-05-08 08:59 | -0.32694 | -78.35816 | 12080 ft | 227 kts | 25° |
| 2026-05-08 09:00 | -0.31260 | -78.35168 | 11767 ft | 225 kts | 25° |
| 2026-05-08 09:00 | -0.29774 | -78.34726 | 11329 ft | 221 kts | 6° |
| 2026-05-08 09:00 | -0.28291 | -78.34723 | 11064 ft | 205 kts | 358° |
| 2026-05-08 09:00 | -0.26921 | -78.34796 | 10819 ft | 189 kts | 358° |
| 2026-05-08 09:01 | -0.25645 | -78.34864 | 10572 ft | 178 kts | 358° |
| 2026-05-08 09:01 | -0.24466 | -78.34921 | 10495 ft | 162 kts | 359° |
| 2026-05-08 09:01 | -0.23333 | -78.34970 | 10408 ft | 167 kts | 3° |
| 2026-05-08 09:01 | -0.22123 | -78.34990 | 9902 ft | 181 kts | 0° |
| 2026-05-08 09:02 | -0.20858 | -78.35056 | 9515 ft | 180 kts | 354° |
| 2026-05-08 09:02 | -0.19633 | -78.35170 | 9204 ft | 174 kts | 359° |
| 2026-05-08 09:02 | -0.18459 | -78.35184 | 8959 ft | 164 kts | 359° |
| 2026-05-08 09:02 | -0.17350 | -78.35227 | 8633 ft | 161 kts | 357° |
| 2026-05-08 09:03 | -0.16236 | -78.35284 | 8358 ft | 159 kts | 359° |
| 2026-05-08 09:03 | -0.15130 | -78.35328 | 8152 ft | 159 kts | 357° |
| 2026-05-08 09:03 | -0.14020 | -78.35383 | 7927 ft | 159 kts | 357° |
| 2026-05-08 09:03 | -0.13000 | -78.35420 | 7882 ft | 118 kts | 358° |
| 2026-05-08 09:04 | -0.12605 | -78.35441 | 7863 ft | 9 kts | 343° |
| 2026-05-08 09:04 | -0.12559 | -78.35460 | 7861 ft | 12 kts | 335° |
| 2026-05-08 09:04 | -0.12480 | -78.35513 | 7855 ft | 16 kts | 323° |
| 2026-05-08 09:04 | -0.12381 | -78.35579 | 7851 ft | 18 kts | 323° |